DLH426 EDDF-KLAX
Flight info
| Callsign | DLH426 |
|---|---|
| Flight time | N/A |
| Altitude | 34000 |
| Route | OBOKA3M OBOKA Z28 DIBIR DCT BUDIP DCT GISEB DCT RAVLO Y70 ABTOS N110 ERKIT DCT KUGUR DCT PIKIL/M083F360 DCT 57N020W 58N030W 58N040W 57N050W DCT HOIST/N0475F360 DCT 5430N06000W 53N070W 51N080W/N0479F380 4830N09000W DCT KP12G DCT KP84A DCT KD63U DCT KU51Q DCT PROMT Q88 HAKMN ANJLL4 |
| Aircraft | A388/J-SADE2E3FGHIJ3J4J5M1RWXY/LB1D1 |
Departure
| Time | N/A |
|---|---|
| Airport | Frankfurt Main Airport (EDDF) |
Arrival
| Time | 2026-04-25 05:43 |
|---|---|
| Airport | Los Angeles International Airport (KLAX) |
| Time | Latitude | Longitude | Altitude | Speed | Heading |
|---|---|---|---|---|---|
| 2026-04-24 22:49 | 58.03312 | -30.92732 | 36097 ft | 537 kts | 271° |
| 2026-04-24 22:49 | 58.03536 | -30.99787 | 36093 ft | 537 kts | 271° |
| 2026-04-24 22:49 | 58.03970 | -31.13861 | 36095 ft | 537 kts | 271° |
| 2026-04-24 22:50 | 58.04390 | -31.27956 | 36087 ft | 536 kts | 271° |
| 2026-04-24 22:50 | 58.04790 | -31.41936 | 36092 ft | 536 kts | 271° |
| 2026-04-24 22:51 | 58.05178 | -31.56012 | 36087 ft | 536 kts | 271° |
| 2026-04-24 22:51 | 58.05551 | -31.70113 | 36092 ft | 537 kts | 271° |
| 2026-04-24 22:52 | 58.05906 | -31.84129 | 36085 ft | 537 kts | 271° |
| 2026-04-24 22:52 | 58.06247 | -31.98239 | 36085 ft | 537 kts | 271° |
| 2026-04-24 22:53 | 58.06574 | -32.12349 | 36087 ft | 537 kts | 270° |
| 2026-04-24 22:53 | 58.06882 | -32.26378 | 36085 ft | 537 kts | 270° |
| 2026-04-24 22:54 | 58.07177 | -32.40478 | 36090 ft | 537 kts | 270° |
| 2026-04-24 22:54 | 58.07456 | -32.54578 | 36096 ft | 536 kts | 270° |
| 2026-04-24 22:55 | 58.07718 | -32.68613 | 36092 ft | 536 kts | 270° |
| 2026-04-24 22:55 | 58.07966 | -32.82689 | 36089 ft | 536 kts | 270° |
| 2026-04-24 22:56 | 58.08197 | -32.96762 | 36092 ft | 535 kts | 270° |
| 2026-04-24 22:56 | 58.08414 | -33.10839 | 36090 ft | 535 kts | 270° |
| 2026-04-24 22:57 | 58.08615 | -33.24917 | 36085 ft | 535 kts | 270° |
| 2026-04-24 22:57 | 58.08799 | -33.38901 | 36066 ft | 535 kts | 270° |
| 2026-04-24 22:58 | 58.08968 | -33.52980 | 36097 ft | 535 kts | 270° |
| 2026-04-24 22:58 | 58.09123 | -33.67050 | 36094 ft | 535 kts | 269° |
| 2026-04-24 22:59 | 58.09261 | -33.81058 | 36101 ft | 535 kts | 269° |
| 2026-04-24 23:00 | 58.09422 | -33.99845 | 36094 ft | 536 kts | 269° |
| 2026-04-24 23:00 | 58.09525 | -34.13960 | 36091 ft | 536 kts | 269° |
| 2026-04-24 23:01 | 58.09612 | -34.28064 | 36100 ft | 536 kts | 269° |
| 2026-04-24 23:01 | 58.09684 | -34.42085 | 36100 ft | 536 kts | 269° |
| 2026-04-24 23:02 | 58.09740 | -34.56194 | 36097 ft | 536 kts | 269° |
| 2026-04-24 23:02 | 58.09780 | -34.70292 | 36099 ft | 536 kts | 269° |
| 2026-04-24 23:03 | 58.09805 | -34.84384 | 36092 ft | 535 kts | 269° |
| 2026-04-24 23:03 | 58.09815 | -34.98389 | 36089 ft | 535 kts | 268° |
| 2026-04-24 23:04 | 58.09808 | -35.12498 | 36091 ft | 535 kts | 268° |
| 2026-04-24 23:04 | 58.09787 | -35.26490 | 36090 ft | 535 kts | 268° |
| 2026-04-24 23:05 | 58.09750 | -35.40572 | 36083 ft | 535 kts | 268° |
| 2026-04-24 23:05 | 58.09697 | -35.54660 | 36076 ft | 535 kts | 268° |
| 2026-04-24 23:06 | 58.09629 | -35.68725 | 36097 ft | 534 kts | 268° |
| 2026-04-24 23:06 | 58.09546 | -35.82781 | 36095 ft | 534 kts | 268° |
| 2026-04-24 23:07 | 58.09448 | -35.96739 | 36101 ft | 534 kts | 268° |
| 2026-04-24 23:07 | 58.09334 | -36.10780 | 36118 ft | 534 kts | 268° |
| 2026-04-24 23:08 | 58.09204 | -36.24836 | 36089 ft | 534 kts | 268° |
| 2026-04-24 23:08 | 58.09060 | -36.38811 | 36095 ft | 534 kts | 268° |
| 2026-04-24 23:09 | 58.08899 | -36.52865 | 36099 ft | 534 kts | 268° |
| 2026-04-24 23:09 | 58.08724 | -36.66831 | 36097 ft | 533 kts | 268° |
| 2026-04-24 23:10 | 58.08533 | -36.80856 | 36109 ft | 533 kts | 267° |
| 2026-04-24 23:10 | 58.08326 | -36.94920 | 36101 ft | 534 kts | 267° |
| 2026-04-24 23:11 | 58.08105 | -37.08871 | 36101 ft | 534 kts | 267° |
| 2026-04-24 23:11 | 58.07868 | -37.22897 | 36098 ft | 533 kts | 267° |
| 2026-04-24 23:12 | 58.07615 | -37.36931 | 36107 ft | 533 kts | 267° |
| 2026-04-24 23:12 | 58.07349 | -37.50862 | 36101 ft | 533 kts | 267° |
| 2026-04-24 23:13 | 58.07065 | -37.64885 | 36094 ft | 534 kts | 267° |
| 2026-04-24 23:13 | 58.06767 | -37.78877 | 36104 ft | 533 kts | 266° |
| 2026-04-24 23:14 | 58.06453 | -37.92875 | 36107 ft | 533 kts | 266° |
| 2026-04-24 23:14 | 58.06126 | -38.06801 | 36103 ft | 533 kts | 266° |
| 2026-04-24 23:15 | 58.05782 | -38.20785 | 36113 ft | 533 kts | 266° |
| 2026-04-24 23:15 | 58.05422 | -38.34783 | 36125 ft | 533 kts | 266° |
| 2026-04-24 23:16 | 58.05046 | -38.48781 | 36108 ft | 533 kts | 266° |
| 2026-04-24 23:16 | 58.04658 | -38.62695 | 36111 ft | 533 kts | 266° |
| 2026-04-24 23:17 | 58.04252 | -38.76682 | 36114 ft | 533 kts | 266° |
| 2026-04-24 23:17 | 58.03831 | -38.90660 | 36112 ft | 533 kts | 266° |
| 2026-04-24 23:18 | 58.03395 | -39.04637 | 36113 ft | 533 kts | 265° |
| 2026-04-24 23:18 | 58.02946 | -39.18522 | 36113 ft | 533 kts | 265° |
| 2026-04-24 23:19 | 58.02478 | -39.32527 | 36111 ft | 533 kts | 265° |
| 2026-04-24 23:19 | 58.01995 | -39.46494 | 36120 ft | 533 kts | 265° |
| 2026-04-24 23:20 | 58.01501 | -39.60409 | 36113 ft | 533 kts | 265° |
| 2026-04-24 23:20 | 58.00999 | -39.74362 | 36120 ft | 533 kts | 265° |
| 2026-04-24 23:21 | 58.00484 | -39.88346 | 36125 ft | 533 kts | 265° |
| 2026-04-24 23:21 | 57.99877 | -40.02300 | 36124 ft | 533 kts | 262° |
| 2026-04-24 23:22 | 57.98967 | -40.16070 | 36115 ft | 532 kts | 262° |
| 2026-04-24 23:22 | 57.98161 | -40.29964 | 36133 ft | 532 kts | 262° |
| 2026-04-24 23:23 | 57.97338 | -40.43848 | 36127 ft | 533 kts | 262° |
| 2026-04-24 23:23 | 57.96493 | -40.57624 | 36132 ft | 533 kts | 262° |
| 2026-04-24 23:24 | 57.95617 | -40.71503 | 36135 ft | 533 kts | 262° |
| 2026-04-24 23:24 | 57.94721 | -40.85355 | 36134 ft | 533 kts | 262° |
| 2026-04-24 23:25 | 57.93809 | -40.99189 | 36132 ft | 532 kts | 262° |
| 2026-04-24 23:25 | 57.92887 | -41.12943 | 36143 ft | 532 kts | 261° |
| 2026-04-24 23:26 | 57.91944 | -41.26768 | 36157 ft | 532 kts | 261° |
| 2026-04-24 23:26 | 57.90987 | -41.40596 | 36131 ft | 533 kts | 261° |
| 2026-04-24 23:27 | 57.90012 | -41.54448 | 36130 ft | 533 kts | 261° |
| 2026-04-24 23:27 | 57.89030 | -41.68173 | 36128 ft | 533 kts | 261° |
| 2026-04-24 23:28 | 57.88026 | -41.81996 | 36127 ft | 533 kts | 261° |
| 2026-04-24 23:28 | 57.87007 | -41.95809 | 36124 ft | 533 kts | 261° |
| 2026-04-24 23:29 | 57.85979 | -42.09528 | 36136 ft | 533 kts | 261° |
| 2026-04-24 23:29 | 57.84930 | -42.23333 | 36130 ft | 533 kts | 261° |
| 2026-04-24 23:30 | 57.83867 | -42.37118 | 36132 ft | 533 kts | 260° |
| 2026-04-24 23:30 | 57.82789 | -42.50885 | 36134 ft | 533 kts | 260° |
| 2026-04-24 23:31 | 57.81703 | -42.64568 | 36132 ft | 533 kts | 260° |
| 2026-04-24 23:31 | 57.80594 | -42.78332 | 36132 ft | 533 kts | 260° |
| 2026-04-24 23:32 | 57.79470 | -42.92095 | 36148 ft | 533 kts | 260° |
| 2026-04-24 23:32 | 57.78339 | -43.05758 | 36143 ft | 533 kts | 259° |
| 2026-04-24 23:33 | 57.77187 | -43.19485 | 36138 ft | 533 kts | 259° |
| 2026-04-24 23:33 | 57.76020 | -43.33201 | 36131 ft | 533 kts | 259° |
| 2026-04-24 23:34 | 57.74837 | -43.46928 | 36139 ft | 533 kts | 259° |
| 2026-04-24 23:34 | 57.73639 | -43.60647 | 36117 ft | 533 kts | 259° |
| 2026-04-24 23:35 | 57.72435 | -43.74251 | 36123 ft | 533 kts | 259° |
| 2026-04-24 23:35 | 57.71207 | -43.87954 | 36121 ft | 533 kts | 259° |
| 2026-04-24 23:36 | 57.69965 | -44.01641 | 36120 ft | 533 kts | 259° |
| 2026-04-24 23:36 | 57.68709 | -44.15312 | 36130 ft | 534 kts | 258° |
| 2026-04-24 23:37 | 57.67445 | -44.28901 | 36151 ft | 533 kts | 258° |
| 2026-04-24 23:37 | 57.65510 | -44.49387 | 36142 ft | 533 kts | 258° |
| 2026-04-24 23:38 | 57.64203 | -44.63020 | 36143 ft | 533 kts | 258° |
| 2026-04-24 23:38 | 57.62890 | -44.76552 | 36133 ft | 533 kts | 258° |
| 2026-04-24 23:39 | 57.61553 | -44.90170 | 36132 ft | 533 kts | 258° |
| 2026-04-24 23:39 | 57.60201 | -45.03786 | 36126 ft | 533 kts | 258° |
| 2026-04-24 23:40 | 57.58835 | -45.17384 | 36136 ft | 533 kts | 258° |
| 2026-04-24 23:40 | 57.57463 | -45.30878 | 36127 ft | 533 kts | 257° |
| 2026-04-24 23:41 | 57.56070 | -45.44437 | 36130 ft | 532 kts | 257° |
| 2026-04-24 23:41 | 57.54664 | -45.57971 | 36141 ft | 532 kts | 257° |
| 2026-04-24 23:42 | 57.53243 | -45.71497 | 36135 ft | 531 kts | 257° |
| 2026-04-24 23:42 | 57.51818 | -45.84909 | 36122 ft | 531 kts | 257° |
| 2026-04-24 23:43 | 57.50370 | -45.98398 | 36128 ft | 531 kts | 257° |
| 2026-04-24 23:43 | 57.48909 | -46.11870 | 36123 ft | 531 kts | 257° |
| 2026-04-24 23:44 | 57.47434 | -46.25316 | 36131 ft | 531 kts | 257° |
| 2026-04-24 23:44 | 57.45955 | -46.38661 | 36124 ft | 530 kts | 257° |
| 2026-04-24 23:45 | 57.44455 | -46.52066 | 36132 ft | 529 kts | 257° |
| 2026-04-24 23:45 | 57.42942 | -46.65439 | 36127 ft | 529 kts | 257° |
| 2026-04-24 23:46 | 57.41417 | -46.78790 | 36125 ft | 529 kts | 257° |
| 2026-04-24 23:46 | 57.39885 | -46.92058 | 36140 ft | 529 kts | 257° |
| 2026-04-24 23:47 | 57.38332 | -47.05383 | 36133 ft | 528 kts | 257° |
| 2026-04-24 23:47 | 57.36765 | -47.18698 | 36125 ft | 528 kts | 256° |
| 2026-04-24 23:48 | 57.35186 | -47.31977 | 36133 ft | 527 kts | 256° |
| 2026-04-24 23:48 | 57.33595 | -47.45238 | 36123 ft | 527 kts | 256° |
| 2026-04-24 23:49 | 57.31999 | -47.58401 | 36136 ft | 526 kts | 256° |
| 2026-04-24 23:49 | 57.30382 | -47.71626 | 36136 ft | 526 kts | 256° |
| 2026-04-24 23:50 | 57.28761 | -47.84751 | 36136 ft | 526 kts | 256° |
| 2026-04-24 23:50 | 57.27114 | -47.97963 | 36126 ft | 526 kts | 256° |
| 2026-04-24 23:51 | 57.25454 | -48.11158 | 36128 ft | 526 kts | 256° |
| 2026-04-24 23:51 | 57.23793 | -48.24245 | 36148 ft | 526 kts | 256° |
| 2026-04-24 23:52 | 57.22107 | -48.37402 | 36136 ft | 526 kts | 256° |
| 2026-04-24 23:52 | 57.20694 | -48.48340 | 36135 ft | 526 kts | 256° |
| 2026-04-24 23:53 | 57.18988 | -48.61437 | 36139 ft | 524 kts | 255° |
| 2026-04-24 23:53 | 57.17271 | -48.74508 | 36138 ft | 524 kts | 255° |
| 2026-04-24 23:54 | 57.15553 | -48.87466 | 36134 ft | 523 kts | 255° |
| 2026-04-24 23:54 | 57.13812 | -49.00481 | 36142 ft | 523 kts | 255° |
| 2026-04-24 23:55 | 57.12058 | -49.13485 | 36128 ft | 522 kts | 255° |
| 2026-04-24 23:55 | 57.10306 | -49.26367 | 36123 ft | 522 kts | 255° |
| 2026-04-24 23:56 | 57.08532 | -49.39300 | 36132 ft | 522 kts | 255° |
| 2026-04-24 23:56 | 57.06737 | -49.52267 | 36131 ft | 522 kts | 255° |
| 2026-04-24 23:57 | 57.04937 | -49.65185 | 36135 ft | 521 kts | 256° |
| 2026-04-24 23:57 | 57.03146 | -49.78003 | 36137 ft | 521 kts | 255° |
| 2026-04-24 23:58 | 57.01357 | -49.90712 | 36134 ft | 520 kts | 255° |
| 2026-04-24 23:58 | 56.99172 | -50.03370 | 36131 ft | 520 kts | 248° |
| 2026-04-24 23:59 | 56.96258 | -50.15407 | 36122 ft | 519 kts | 245° |
| 2026-04-24 23:59 | 56.93324 | -50.27520 | 36126 ft | 519 kts | 246° |
| 2026-04-25 00:00 | 56.90403 | -50.39620 | 36129 ft | 519 kts | 246° |
| 2026-04-25 00:00 | 56.87459 | -50.51697 | 36131 ft | 519 kts | 245° |
| 2026-04-25 00:01 | 56.84508 | -50.63697 | 36125 ft | 520 kts | 245° |
| 2026-04-25 00:01 | 56.81526 | -50.75747 | 36126 ft | 520 kts | 245° |
| 2026-04-25 00:02 | 56.78540 | -50.87746 | 36140 ft | 519 kts | 245° |
| 2026-04-25 00:02 | 56.75545 | -50.99719 | 36143 ft | 518 kts | 245° |
| 2026-04-25 00:03 | 56.72560 | -51.11588 | 36135 ft | 518 kts | 245° |
| 2026-04-25 00:03 | 56.69545 | -51.23508 | 36122 ft | 517 kts | 245° |
| 2026-04-25 00:04 | 56.66525 | -51.35385 | 36129 ft | 517 kts | 245° |
| 2026-04-25 00:04 | 56.63493 | -51.47248 | 36123 ft | 516 kts | 245° |
| 2026-04-25 00:05 | 56.60475 | -51.58994 | 36121 ft | 516 kts | 245° |
| 2026-04-25 00:05 | 56.57426 | -51.70797 | 36114 ft | 516 kts | 245° |
| 2026-04-25 00:06 | 56.54373 | -51.82555 | 36113 ft | 516 kts | 244° |
| 2026-04-25 00:06 | 56.51321 | -51.94246 | 36117 ft | 516 kts | 244° |
| 2026-04-25 00:07 | 56.48235 | -52.06008 | 36118 ft | 516 kts | 244° |
| 2026-04-25 00:07 | 56.45139 | -52.17742 | 36117 ft | 516 kts | 244° |
| 2026-04-25 00:08 | 56.42033 | -52.29458 | 36113 ft | 516 kts | 244° |
| 2026-04-25 00:08 | 56.38937 | -52.41075 | 36132 ft | 516 kts | 244° |
| 2026-04-25 00:09 | 56.35805 | -52.52763 | 36120 ft | 517 kts | 244° |
| 2026-04-25 00:09 | 56.32665 | -52.64425 | 36122 ft | 516 kts | 244° |
| 2026-04-25 00:10 | 56.29530 | -52.76007 | 36115 ft | 516 kts | 244° |
| 2026-04-25 00:10 | 56.26371 | -52.87621 | 36115 ft | 516 kts | 244° |
| 2026-04-25 00:11 | 56.23201 | -52.99216 | 36121 ft | 516 kts | 244° |
| 2026-04-25 00:11 | 56.20037 | -53.10728 | 36126 ft | 516 kts | 243° |
| 2026-04-25 00:12 | 56.16838 | -53.22308 | 36126 ft | 516 kts | 243° |
| 2026-04-25 00:12 | 56.13635 | -53.33849 | 36127 ft | 516 kts | 243° |
| 2026-04-25 00:13 | 56.10423 | -53.45362 | 36109 ft | 516 kts | 243° |
| 2026-04-25 00:13 | 56.07222 | -53.56779 | 36128 ft | 515 kts | 243° |
| 2026-04-25 00:14 | 56.03990 | -53.68248 | 36123 ft | 515 kts | 243° |
| 2026-04-25 00:14 | 56.00741 | -53.79722 | 36116 ft | 515 kts | 243° |
| 2026-04-25 00:15 | 55.97512 | -53.91068 | 36116 ft | 516 kts | 243° |
| 2026-04-25 00:15 | 55.94250 | -54.02472 | 36118 ft | 516 kts | 243° |
| 2026-04-25 00:16 | 55.90970 | -54.13888 | 36108 ft | 516 kts | 243° |
| 2026-04-25 00:16 | 55.87682 | -54.25273 | 36112 ft | 516 kts | 242° |
| 2026-04-25 00:17 | 55.84402 | -54.36576 | 36112 ft | 517 kts | 242° |
| 2026-04-25 00:17 | 55.81089 | -54.47935 | 36119 ft | 516 kts | 242° |
| 2026-04-25 00:18 | 55.77766 | -54.59276 | 36135 ft | 517 kts | 242° |
| 2026-04-25 00:18 | 55.74456 | -54.70517 | 36139 ft | 517 kts | 242° |
| 2026-04-25 00:19 | 55.71110 | -54.81824 | 36143 ft | 516 kts | 242° |
| 2026-04-25 00:19 | 55.67763 | -54.93082 | 36141 ft | 516 kts | 242° |
| 2026-04-25 00:20 | 55.64403 | -55.04329 | 36143 ft | 516 kts | 242° |
| 2026-04-25 00:20 | 55.61056 | -55.15481 | 36133 ft | 516 kts | 242° |
| 2026-04-25 00:21 | 55.57672 | -55.26704 | 36127 ft | 516 kts | 242° |
| 2026-04-25 00:21 | 55.54287 | -55.37873 | 36124 ft | 516 kts | 241° |
| 2026-04-25 00:22 | 55.50887 | -55.49041 | 36117 ft | 516 kts | 241° |
| 2026-04-25 00:22 | 55.47500 | -55.60113 | 36127 ft | 516 kts | 241° |
| 2026-04-25 00:23 | 55.44081 | -55.71241 | 36144 ft | 515 kts | 241° |
| 2026-04-25 00:23 | 55.40653 | -55.82343 | 36124 ft | 516 kts | 241° |
| 2026-04-25 00:24 | 55.37236 | -55.93361 | 36141 ft | 515 kts | 241° |
| 2026-04-25 00:24 | 55.33789 | -56.04421 | 36165 ft | 514 kts | 241° |
| 2026-04-25 00:25 | 55.30361 | -56.15370 | 36156 ft | 514 kts | 241° |
| 2026-04-25 00:25 | 55.26909 | -56.26346 | 36146 ft | 513 kts | 241° |
| 2026-04-25 00:26 | 55.23450 | -56.37294 | 36151 ft | 512 kts | 241° |
| 2026-04-25 00:26 | 55.19987 | -56.48204 | 36153 ft | 512 kts | 241° |
| 2026-04-25 00:27 | 55.16526 | -56.59059 | 36459 ft | 515 kts | 241° |
| 2026-04-25 00:27 | 55.14774 | -56.64535 | 36828 ft | 515 kts | 241° |
| 2026-04-25 00:27 | 55.13022 | -56.70002 | 37189 ft | 515 kts | 240° |
| 2026-04-25 00:28 | 55.11268 | -56.75463 | 37545 ft | 515 kts | 240° |
| 2026-04-25 00:28 | 55.09508 | -56.80941 | 37870 ft | 516 kts | 240° |
| 2026-04-25 00:28 | 55.07749 | -56.86404 | 38130 ft | 518 kts | 240° |
| 2026-04-25 00:28 | 55.05976 | -56.91902 | 38154 ft | 516 kts | 240° |
| 2026-04-25 00:29 | 55.02795 | -57.02931 | 38183 ft | 513 kts | 252° |
| 2026-04-25 00:29 | 55.00828 | -57.14896 | 38159 ft | 514 kts | 255° |
| 2026-04-25 00:30 | 54.98954 | -57.26547 | 38169 ft | 514 kts | 254° |
| 2026-04-25 00:30 | 54.96987 | -57.38451 | 38182 ft | 514 kts | 254° |
| 2026-04-25 00:31 | 54.94986 | -57.50405 | 38179 ft | 514 kts | 254° |
| 2026-04-25 00:31 | 54.92973 | -57.62334 | 38196 ft | 514 kts | 254° |
| 2026-04-25 00:32 | 54.90949 | -57.74257 | 38187 ft | 514 kts | 254° |
| 2026-04-25 00:32 | 54.89256 | -57.84164 | 38197 ft | 514 kts | 254° |
| 2026-04-25 00:33 | 54.86876 | -57.98006 | 38211 ft | 514 kts | 253° |
| 2026-04-25 00:33 | 54.84819 | -58.09881 | 38213 ft | 514 kts | 253° |
| 2026-04-25 00:34 | 54.82747 | -58.21762 | 38213 ft | 514 kts | 253° |
| 2026-04-25 00:34 | 54.80665 | -58.33622 | 38226 ft | 514 kts | 253° |
| 2026-04-25 00:35 | 54.78582 | -58.45414 | 38210 ft | 514 kts | 253° |
| 2026-04-25 00:35 | 54.76472 | -58.57274 | 38203 ft | 515 kts | 253° |
| 2026-04-25 00:36 | 54.74347 | -58.69147 | 38225 ft | 515 kts | 253° |
| 2026-04-25 00:36 | 54.72230 | -58.80896 | 38218 ft | 515 kts | 253° |
| 2026-04-25 00:37 | 54.70086 | -58.92720 | 38220 ft | 515 kts | 253° |
| 2026-04-25 00:37 | 54.67930 | -59.04535 | 38240 ft | 515 kts | 253° |
| 2026-04-25 00:38 | 54.65764 | -59.16329 | 38222 ft | 515 kts | 252° |
| 2026-04-25 00:38 | 54.63581 | -59.28143 | 38241 ft | 515 kts | 252° |
| 2026-04-25 00:39 | 54.61389 | -59.39927 | 38241 ft | 515 kts | 252° |
| 2026-04-25 00:39 | 54.59201 | -59.51616 | 38241 ft | 515 kts | 252° |
| 2026-04-25 00:40 | 54.56988 | -59.63369 | 38236 ft | 515 kts | 252° |
| 2026-04-25 00:40 | 54.54761 | -59.75120 | 38257 ft | 515 kts | 252° |
| 2026-04-25 00:41 | 54.52526 | -59.86840 | 38233 ft | 515 kts | 252° |
| 2026-04-25 00:41 | 54.50298 | -59.98491 | 38243 ft | 515 kts | 253° |
| 2026-04-25 00:42 | 54.48840 | -60.10548 | 38239 ft | 515 kts | 261° |
| 2026-04-25 00:42 | 54.47787 | -60.20643 | 38238 ft | 515 kts | 261° |
| 2026-04-25 00:43 | 54.46302 | -60.34744 | 38246 ft | 515 kts | 260° |
| 2026-04-25 00:43 | 54.45009 | -60.46864 | 38243 ft | 515 kts | 260° |
| 2026-04-25 00:44 | 54.43925 | -60.56941 | 38246 ft | 515 kts | 260° |
| 2026-04-25 00:44 | 54.42604 | -60.69045 | 38268 ft | 515 kts | 260° |
| 2026-04-25 00:45 | 54.41263 | -60.81160 | 38255 ft | 515 kts | 260° |
| 2026-04-25 00:45 | 54.39921 | -60.93165 | 38282 ft | 515 kts | 259° |
| 2026-04-25 00:46 | 54.38558 | -61.05244 | 38270 ft | 515 kts | 259° |
| 2026-04-25 00:47 | 54.36493 | -61.23328 | 38297 ft | 514 kts | 259° |
| 2026-04-25 00:47 | 54.35103 | -61.35354 | 38292 ft | 514 kts | 259° |
| 2026-04-25 00:48 | 54.33710 | -61.47300 | 38288 ft | 514 kts | 259° |
| 2026-04-25 00:48 | 54.32297 | -61.59307 | 38271 ft | 514 kts | 259° |
| 2026-04-25 00:49 | 54.30871 | -61.71315 | 38286 ft | 514 kts | 259° |
| 2026-04-25 00:49 | 54.29442 | -61.83238 | 38305 ft | 514 kts | 259° |
| 2026-04-25 00:50 | 54.27994 | -61.95220 | 38304 ft | 514 kts | 259° |
| 2026-04-25 00:50 | 54.26531 | -62.07208 | 38283 ft | 514 kts | 259° |
| 2026-04-25 00:51 | 54.25060 | -62.19167 | 38286 ft | 513 kts | 258° |
| 2026-04-25 00:51 | 54.23585 | -62.31051 | 38290 ft | 513 kts | 258° |
| 2026-04-25 00:52 | 54.22090 | -62.42992 | 38291 ft | 513 kts | 258° |
| 2026-04-25 00:52 | 54.20582 | -62.54928 | 38289 ft | 513 kts | 258° |
| 2026-04-25 00:53 | 54.19063 | -62.66854 | 38291 ft | 514 kts | 258° |
| 2026-04-25 00:53 | 54.17540 | -62.78717 | 38291 ft | 514 kts | 258° |
| 2026-04-25 00:54 | 54.15992 | -62.90662 | 38288 ft | 515 kts | 258° |
| 2026-04-25 00:54 | 54.14432 | -63.02606 | 38305 ft | 515 kts | 258° |
| 2026-04-25 00:55 | 54.12871 | -63.14464 | 38281 ft | 515 kts | 258° |
| 2026-04-25 00:55 | 54.11288 | -63.26379 | 38303 ft | 515 kts | 258° |
| 2026-04-25 00:56 | 54.09694 | -63.38293 | 38302 ft | 516 kts | 257° |
| 2026-04-25 00:56 | 54.08086 | -63.50201 | 38294 ft | 516 kts | 257° |
| 2026-04-25 00:57 | 54.06462 | -63.62138 | 38301 ft | 517 kts | 257° |
| 2026-04-25 00:57 | 54.04828 | -63.74053 | 38322 ft | 517 kts | 257° |
| 2026-04-25 00:58 | 54.03189 | -63.85905 | 38319 ft | 517 kts | 257° |
| 2026-04-25 00:58 | 54.01530 | -63.97811 | 38316 ft | 517 kts | 257° |
| 2026-04-25 00:59 | 53.99857 | -64.09727 | 38299 ft | 517 kts | 257° |
| 2026-04-25 00:59 | 53.98182 | -64.21560 | 38320 ft | 518 kts | 257° |
| 2026-04-25 01:00 | 53.96486 | -64.33451 | 38322 ft | 518 kts | 257° |
| 2026-04-25 01:00 | 53.94775 | -64.45350 | 38330 ft | 518 kts | 257° |
| 2026-04-25 01:01 | 53.93052 | -64.57243 | 38329 ft | 518 kts | 257° |
| 2026-04-25 01:01 | 53.91321 | -64.69107 | 38321 ft | 517 kts | 257° |
| 2026-04-25 01:02 | 53.89589 | -64.80882 | 38319 ft | 517 kts | 257° |
| 2026-04-25 01:02 | 53.87836 | -64.92711 | 38325 ft | 517 kts | 256° |
| 2026-04-25 01:03 | 53.86072 | -65.04532 | 38315 ft | 517 kts | 256° |
| 2026-04-25 01:03 | 53.84295 | -65.16347 | 38317 ft | 517 kts | 256° |
| 2026-04-25 01:04 | 53.82520 | -65.28062 | 38316 ft | 516 kts | 256° |
| 2026-04-25 01:04 | 53.80724 | -65.39833 | 38319 ft | 516 kts | 256° |
| 2026-04-25 01:05 | 53.78915 | -65.51603 | 38326 ft | 516 kts | 256° |
| 2026-04-25 01:05 | 53.77096 | -65.63346 | 38321 ft | 516 kts | 256° |
| 2026-04-25 01:06 | 53.75264 | -65.75100 | 38330 ft | 517 kts | 256° |
| 2026-04-25 01:06 | 53.73431 | -65.86770 | 38309 ft | 517 kts | 256° |
| 2026-04-25 01:07 | 53.71572 | -65.98522 | 38333 ft | 516 kts | 256° |
| 2026-04-25 01:07 | 53.69706 | -66.10239 | 38339 ft | 516 kts | 256° |
| 2026-04-25 01:08 | 53.67828 | -66.21946 | 38335 ft | 516 kts | 256° |
| 2026-04-25 01:08 | 53.65954 | -66.33552 | 38334 ft | 516 kts | 256° |
| 2026-04-25 01:09 | 53.64053 | -66.45239 | 38330 ft | 516 kts | 256° |
| 2026-04-25 01:09 | 53.62156 | -66.56823 | 38339 ft | 515 kts | 256° |
| 2026-04-25 01:10 | 53.60236 | -66.68470 | 38336 ft | 515 kts | 255° |
| 2026-04-25 01:10 | 53.58306 | -66.80101 | 38330 ft | 515 kts | 255° |
| 2026-04-25 01:11 | 53.56365 | -66.91716 | 38333 ft | 515 kts | 255° |
| 2026-04-25 01:11 | 53.54410 | -67.03337 | 38328 ft | 515 kts | 255° |
| 2026-04-25 01:12 | 53.52459 | -67.14858 | 38336 ft | 515 kts | 255° |
| 2026-04-25 01:12 | 53.50484 | -67.26445 | 38327 ft | 515 kts | 255° |
| 2026-04-25 01:13 | 53.48498 | -67.38019 | 38326 ft | 516 kts | 255° |
| 2026-04-25 01:13 | 53.46499 | -67.49596 | 38328 ft | 516 kts | 255° |
| 2026-04-25 01:14 | 53.44488 | -67.61161 | 38327 ft | 516 kts | 255° |
| 2026-04-25 01:14 | 53.42462 | -67.72737 | 38330 ft | 517 kts | 255° |
| 2026-04-25 01:15 | 53.40438 | -67.84227 | 38330 ft | 517 kts | 255° |
| 2026-04-25 01:15 | 53.38386 | -67.95806 | 38321 ft | 517 kts | 255° |
| 2026-04-25 01:16 | 53.36324 | -68.07366 | 38326 ft | 518 kts | 255° |
| 2026-04-25 01:16 | 53.34254 | -68.18900 | 38330 ft | 518 kts | 254° |
| 2026-04-25 01:17 | 53.32179 | -68.30384 | 38331 ft | 518 kts | 254° |
| 2026-04-25 01:17 | 53.30081 | -68.41924 | 38341 ft | 518 kts | 254° |
| 2026-04-25 01:18 | 53.27971 | -68.53455 | 38333 ft | 518 kts | 254° |
| 2026-04-25 01:18 | 53.25849 | -68.64982 | 38338 ft | 518 kts | 254° |
| 2026-04-25 01:19 | 53.23732 | -68.76414 | 38335 ft | 518 kts | 254° |
| 2026-04-25 01:19 | 53.21585 | -68.87933 | 38334 ft | 518 kts | 254° |
| 2026-04-25 01:20 | 53.19431 | -68.99416 | 38334 ft | 518 kts | 254° |
| 2026-04-25 01:20 | 53.17282 | -69.10811 | 38330 ft | 518 kts | 253° |
| 2026-04-25 01:21 | 53.15105 | -69.22273 | 38332 ft | 518 kts | 253° |
| 2026-04-25 01:21 | 53.12920 | -69.33717 | 38323 ft | 518 kts | 253° |
| 2026-04-25 01:22 | 53.10725 | -69.45144 | 38325 ft | 518 kts | 253° |
| 2026-04-25 01:22 | 53.08534 | -69.56478 | 38327 ft | 518 kts | 253° |
| 2026-04-25 01:23 | 53.06322 | -69.67883 | 38326 ft | 518 kts | 253° |
| 2026-04-25 01:23 | 53.04100 | -69.79302 | 38303 ft | 518 kts | 253° |
| 2026-04-25 01:24 | 53.01868 | -69.90703 | 38311 ft | 519 kts | 253° |
| 2026-04-25 01:24 | 52.99625 | -70.02020 | 38315 ft | 519 kts | 253° |
| 2026-04-25 01:25 | 52.97779 | -70.13595 | 38321 ft | 518 kts | 259° |
| 2026-04-25 01:25 | 52.96113 | -70.25246 | 38326 ft | 519 kts | 258° |
| 2026-04-25 01:26 | 52.94370 | -70.36893 | 38331 ft | 519 kts | 258° |
| 2026-04-25 01:26 | 52.92604 | -70.48434 | 38308 ft | 520 kts | 258° |
| 2026-04-25 01:27 | 52.90806 | -70.60078 | 38311 ft | 521 kts | 258° |
| 2026-04-25 01:27 | 52.88990 | -70.71712 | 38324 ft | 521 kts | 258° |
| 2026-04-25 01:28 | 52.86248 | -70.89098 | 38317 ft | 522 kts | 257° |
| 2026-04-25 01:28 | 52.84400 | -71.00705 | 38294 ft | 522 kts | 257° |
| 2026-04-25 01:29 | 52.82537 | -71.12326 | 38306 ft | 522 kts | 258° |
| 2026-04-25 01:29 | 52.80676 | -71.23861 | 38310 ft | 522 kts | 257° |
| 2026-04-25 01:30 | 52.78791 | -71.35461 | 38312 ft | 522 kts | 257° |
| 2026-04-25 01:30 | 52.76892 | -71.47066 | 38319 ft | 522 kts | 257° |
| 2026-04-25 01:31 | 52.74998 | -71.58566 | 38317 ft | 522 kts | 257° |
| 2026-04-25 01:31 | 52.73077 | -71.70144 | 38308 ft | 521 kts | 257° |
| 2026-04-25 01:32 | 52.71479 | -71.79726 | 38311 ft | 521 kts | 257° |
| 2026-04-25 01:32 | 52.69546 | -71.91241 | 38315 ft | 521 kts | 257° |
| 2026-04-25 01:33 | 52.67600 | -72.02756 | 38308 ft | 520 kts | 257° |
| 2026-04-25 01:33 | 52.65659 | -72.14165 | 38297 ft | 520 kts | 257° |
| 2026-04-25 01:34 | 52.63694 | -72.25633 | 38309 ft | 519 kts | 257° |
| 2026-04-25 01:34 | 52.61724 | -72.37060 | 38299 ft | 518 kts | 257° |
| 2026-04-25 01:35 | 52.59745 | -72.48475 | 38294 ft | 518 kts | 257° |
| 2026-04-25 01:35 | 52.57754 | -72.59877 | 38291 ft | 517 kts | 257° |
| 2026-04-25 01:36 | 52.55769 | -72.71176 | 38281 ft | 517 kts | 257° |
| 2026-04-25 01:36 | 52.53758 | -72.82540 | 38280 ft | 516 kts | 257° |
| 2026-04-25 01:37 | 52.51744 | -72.93861 | 38288 ft | 516 kts | 257° |
| 2026-04-25 01:37 | 52.49733 | -73.05095 | 38290 ft | 515 kts | 257° |
| 2026-04-25 01:38 | 52.47700 | -73.16378 | 38287 ft | 515 kts | 257° |
| 2026-04-25 01:38 | 52.45657 | -73.27646 | 38278 ft | 515 kts | 257° |
| 2026-04-25 01:39 | 52.43607 | -73.38884 | 38235 ft | 514 kts | 257° |
| 2026-04-25 01:39 | 52.41550 | -73.50095 | 38284 ft | 513 kts | 257° |
| 2026-04-25 01:40 | 52.39497 | -73.61215 | 38279 ft | 513 kts | 257° |
| 2026-04-25 01:40 | 52.37418 | -73.72406 | 38277 ft | 512 kts | 257° |
| 2026-04-25 01:41 | 52.35335 | -73.83552 | 38272 ft | 512 kts | 257° |
| 2026-04-25 01:41 | 52.33252 | -73.94637 | 38267 ft | 512 kts | 257° |
| 2026-04-25 01:42 | 52.31150 | -74.05745 | 38280 ft | 511 kts | 257° |
| 2026-04-25 01:42 | 52.29043 | -74.16826 | 38277 ft | 510 kts | 257° |
| 2026-04-25 01:43 | 52.26927 | -74.27885 | 38269 ft | 510 kts | 257° |
| 2026-04-25 01:43 | 52.24801 | -74.38930 | 38258 ft | 509 kts | 256° |
| 2026-04-25 01:44 | 52.22682 | -74.49881 | 38251 ft | 509 kts | 256° |
| 2026-04-25 01:44 | 52.20541 | -74.60873 | 38270 ft | 508 kts | 256° |
| 2026-04-25 01:45 | 52.18437 | -74.71622 | 38259 ft | 507 kts | 256° |
| 2026-04-25 01:45 | 52.16297 | -74.82491 | 38244 ft | 506 kts | 256° |
| 2026-04-25 01:46 | 52.14136 | -74.93408 | 38242 ft | 506 kts | 256° |
| 2026-04-25 01:46 | 52.11965 | -75.04313 | 38242 ft | 506 kts | 256° |
| 2026-04-25 01:47 | 52.09797 | -75.15139 | 38268 ft | 504 kts | 256° |
| 2026-04-25 01:47 | 52.07612 | -75.25992 | 38257 ft | 503 kts | 256° |
| 2026-04-25 01:48 | 52.05428 | -75.36779 | 38264 ft | 502 kts | 256° |
| 2026-04-25 01:48 | 52.03251 | -75.47470 | 38255 ft | 500 kts | 255° |
| 2026-04-25 01:49 | 52.01056 | -75.58196 | 38237 ft | 499 kts | 255° |
| 2026-04-25 01:49 | 51.98853 | -75.68903 | 38199 ft | 499 kts | 255° |
| 2026-04-25 01:50 | 51.96666 | -75.79476 | 38237 ft | 497 kts | 255° |
| 2026-04-25 01:50 | 51.94455 | -75.90108 | 38233 ft | 496 kts | 255° |
| 2026-04-25 01:51 | 51.92249 | -76.00659 | 38236 ft | 495 kts | 255° |
| 2026-04-25 01:51 | 51.90015 | -76.11287 | 38232 ft | 495 kts | 255° |
| 2026-04-25 01:52 | 51.87803 | -76.21755 | 38226 ft | 494 kts | 255° |
| 2026-04-25 01:52 | 51.85576 | -76.32243 | 38219 ft | 492 kts | 254° |
| 2026-04-25 01:53 | 51.83340 | -76.42716 | 38218 ft | 492 kts | 254° |
| 2026-04-25 01:53 | 51.81096 | -76.53173 | 38209 ft | 491 kts | 254° |
| 2026-04-25 01:54 | 51.78857 | -76.63556 | 38205 ft | 491 kts | 254° |
| 2026-04-25 01:54 | 51.76595 | -76.73988 | 38208 ft | 491 kts | 254° |
| 2026-04-25 01:55 | 51.74326 | -76.84405 | 38218 ft | 490 kts | 253° |
| 2026-04-25 01:55 | 51.72067 | -76.94720 | 38202 ft | 491 kts | 253° |
| 2026-04-25 01:56 | 51.69782 | -77.05104 | 38205 ft | 491 kts | 253° |
| 2026-04-25 01:56 | 51.67490 | -77.15465 | 38193 ft | 491 kts | 253° |
| 2026-04-25 01:57 | 51.64034 | -77.30992 | 38191 ft | 491 kts | 253° |
| 2026-04-25 01:58 | 51.61718 | -77.41335 | 38185 ft | 490 kts | 253° |
| 2026-04-25 01:58 | 51.59409 | -77.51592 | 38187 ft | 489 kts | 253° |
| 2026-04-25 01:59 | 51.57081 | -77.61886 | 38186 ft | 489 kts | 253° |
| 2026-04-25 01:59 | 51.54750 | -77.72146 | 38182 ft | 489 kts | 253° |
| 2026-04-25 02:00 | 51.52420 | -77.82346 | 38165 ft | 488 kts | 253° |
| 2026-04-25 02:00 | 51.50072 | -77.92578 | 38155 ft | 487 kts | 253° |
| 2026-04-25 02:01 | 51.47720 | -78.02780 | 38158 ft | 487 kts | 253° |
| 2026-04-25 02:01 | 51.45358 | -78.12977 | 38155 ft | 487 kts | 253° |
| 2026-04-25 02:02 | 51.43000 | -78.23104 | 38160 ft | 486 kts | 253° |
| 2026-04-25 02:02 | 51.40627 | -78.33252 | 38154 ft | 486 kts | 253° |
| 2026-04-25 02:03 | 51.38242 | -78.43401 | 38151 ft | 486 kts | 253° |
| 2026-04-25 02:03 | 51.35867 | -78.53454 | 38151 ft | 485 kts | 254° |
| 2026-04-25 02:04 | 51.33470 | -78.63564 | 38138 ft | 485 kts | 253° |
| 2026-04-25 02:04 | 51.31065 | -78.73656 | 38134 ft | 485 kts | 253° |
| 2026-04-25 02:05 | 51.28664 | -78.83686 | 38136 ft | 485 kts | 253° |
| 2026-04-25 02:05 | 51.26240 | -78.93757 | 38138 ft | 485 kts | 254° |
| 2026-04-25 02:06 | 51.23809 | -79.03813 | 38124 ft | 484 kts | 255° |
| 2026-04-25 02:06 | 51.21391 | -79.13781 | 38123 ft | 485 kts | 255° |
| 2026-04-25 02:07 | 51.18942 | -79.23826 | 38120 ft | 485 kts | 255° |
| 2026-04-25 02:07 | 51.16485 | -79.33857 | 38121 ft | 486 kts | 255° |
| 2026-04-25 02:08 | 51.14013 | -79.43901 | 38121 ft | 486 kts | 255° |
| 2026-04-25 02:08 | 51.11549 | -79.53866 | 38096 ft | 486 kts | 255° |
| 2026-04-25 02:09 | 51.09073 | -79.63840 | 38119 ft | 482 kts | 255° |
| 2026-04-25 02:09 | 51.06626 | -79.73675 | 38110 ft | 475 kts | 255° |
| 2026-04-25 02:10 | 51.04201 | -79.83408 | 38110 ft | 477 kts | 255° |
| 2026-04-25 02:10 | 51.01745 | -79.93211 | 38110 ft | 477 kts | 255° |
| 2026-04-25 02:11 | 50.99298 | -80.02937 | 38105 ft | 476 kts | 256° |
| 2026-04-25 02:11 | 50.97317 | -80.12892 | 38106 ft | 472 kts | 260° |
| 2026-04-25 02:12 | 50.95436 | -80.22881 | 38103 ft | 473 kts | 259° |
| 2026-04-25 02:12 | 50.93484 | -80.32866 | 38097 ft | 473 kts | 259° |
| 2026-04-25 02:13 | 50.91512 | -80.42784 | 38135 ft | 470 kts | 259° |
| 2026-04-25 02:13 | 50.89555 | -80.52579 | 38116 ft | 468 kts | 259° |
| 2026-04-25 02:14 | 50.87586 | -80.62381 | 38131 ft | 465 kts | 258° |
| 2026-04-25 02:14 | 50.85611 | -80.72132 | 38112 ft | 463 kts | 258° |
| 2026-04-25 02:15 | 50.83636 | -80.81826 | 38100 ft | 461 kts | 258° |
| 2026-04-25 02:15 | 50.81674 | -80.91412 | 38090 ft | 460 kts | 257° |
| 2026-04-25 02:16 | 50.79696 | -81.01028 | 38067 ft | 459 kts | 257° |
| 2026-04-25 02:16 | 50.77716 | -81.10616 | 38109 ft | 456 kts | 256° |
| 2026-04-25 02:17 | 50.75752 | -81.20072 | 38082 ft | 455 kts | 256° |
| 2026-04-25 02:17 | 50.73773 | -81.29557 | 38073 ft | 454 kts | 256° |
| 2026-04-25 02:18 | 50.71786 | -81.39033 | 38066 ft | 453 kts | 256° |
| 2026-04-25 02:18 | 50.69796 | -81.48484 | 38060 ft | 453 kts | 256° |
| 2026-04-25 02:19 | 50.67812 | -81.57863 | 38039 ft | 454 kts | 256° |
| 2026-04-25 02:19 | 50.65808 | -81.67296 | 38075 ft | 453 kts | 255° |
| 2026-04-25 02:20 | 50.63794 | -81.76719 | 38079 ft | 454 kts | 255° |
| 2026-04-25 02:20 | 50.61774 | -81.86132 | 38073 ft | 454 kts | 255° |
| 2026-04-25 02:21 | 50.59757 | -81.95493 | 38059 ft | 453 kts | 255° |
| 2026-04-25 02:21 | 50.57724 | -82.04882 | 38065 ft | 453 kts | 254° |
| 2026-04-25 02:22 | 50.55687 | -82.14249 | 38043 ft | 453 kts | 253° |
| 2026-04-25 02:22 | 50.53982 | -82.22055 | 38045 ft | 454 kts | 253° |
| 2026-04-25 02:23 | 50.51920 | -82.31452 | 38047 ft | 454 kts | 253° |
| 2026-04-25 02:23 | 50.49848 | -82.40852 | 38047 ft | 455 kts | 253° |
| 2026-04-25 02:24 | 50.47781 | -82.50193 | 38050 ft | 455 kts | 253° |
| 2026-04-25 02:24 | 50.45691 | -82.59594 | 38009 ft | 456 kts | 252° |
| 2026-04-25 02:25 | 50.43590 | -82.69007 | 38015 ft | 457 kts | 252° |
| 2026-04-25 02:25 | 50.41472 | -82.78443 | 38020 ft | 459 kts | 252° |
| 2026-04-25 02:26 | 50.39339 | -82.87906 | 38031 ft | 461 kts | 252° |
| 2026-04-25 02:26 | 50.37208 | -82.97320 | 38034 ft | 462 kts | 252° |
| 2026-04-25 02:27 | 50.35049 | -83.06814 | 38039 ft | 462 kts | 252° |
| 2026-04-25 02:27 | 50.32880 | -83.16317 | 38025 ft | 463 kts | 251° |
| 2026-04-25 02:28 | 50.30712 | -83.25762 | 38016 ft | 464 kts | 251° |
| 2026-04-25 02:28 | 50.28517 | -83.35283 | 38022 ft | 464 kts | 251° |
| 2026-04-25 02:29 | 50.26317 | -83.44788 | 38021 ft | 464 kts | 251° |
| 2026-04-25 02:29 | 50.24122 | -83.54227 | 38006 ft | 464 kts | 250° |
| 2026-04-25 02:30 | 50.21910 | -83.63710 | 37998 ft | 464 kts | 249° |
| 2026-04-25 02:30 | 50.19689 | -83.73170 | 37995 ft | 464 kts | 249° |
| 2026-04-25 02:31 | 50.17472 | -83.82578 | 37992 ft | 464 kts | 249° |
| 2026-04-25 02:31 | 50.15239 | -83.92014 | 37983 ft | 464 kts | 249° |
| 2026-04-25 02:32 | 50.12991 | -84.01473 | 37981 ft | 464 kts | 249° |
| 2026-04-25 02:32 | 50.10741 | -84.10905 | 37977 ft | 464 kts | 248° |
| 2026-04-25 02:33 | 50.08489 | -84.20297 | 37973 ft | 465 kts | 248° |
| 2026-04-25 02:33 | 50.06218 | -84.29727 | 37980 ft | 465 kts | 248° |
| 2026-04-25 02:34 | 50.03935 | -84.39169 | 37997 ft | 465 kts | 248° |
| 2026-04-25 02:34 | 50.01660 | -84.48537 | 37993 ft | 465 kts | 248° |
| 2026-04-25 02:35 | 49.99365 | -84.57950 | 37974 ft | 465 kts | 246° |
| 2026-04-25 02:35 | 49.97059 | -84.67362 | 37974 ft | 466 kts | 246° |
| 2026-04-25 02:36 | 49.94743 | -84.76778 | 37976 ft | 466 kts | 246° |
| 2026-04-25 02:36 | 49.92421 | -84.86175 | 37984 ft | 466 kts | 246° |
| 2026-04-25 02:37 | 49.90101 | -84.95530 | 37989 ft | 467 kts | 246° |
| 2026-04-25 02:37 | 49.87758 | -85.04935 | 37994 ft | 467 kts | 246° |
| 2026-04-25 02:38 | 49.85408 | -85.14332 | 38000 ft | 467 kts | 246° |
| 2026-04-25 02:38 | 49.83062 | -85.23667 | 37998 ft | 467 kts | 246° |
| 2026-04-25 02:39 | 49.80702 | -85.33023 | 37999 ft | 466 kts | 246° |
| 2026-04-25 02:39 | 49.78330 | -85.42388 | 37996 ft | 466 kts | 245° |
| 2026-04-25 02:40 | 49.75969 | -85.51677 | 37954 ft | 467 kts | 245° |
| 2026-04-25 02:40 | 49.73570 | -85.61063 | 37953 ft | 469 kts | 245° |
| 2026-04-25 02:41 | 49.71166 | -85.70435 | 37981 ft | 470 kts | 244° |
| 2026-04-25 02:41 | 49.68762 | -85.79771 | 37990 ft | 471 kts | 244° |
| 2026-04-25 02:42 | 49.66329 | -85.89178 | 37963 ft | 472 kts | 244° |
| 2026-04-25 02:42 | 49.63882 | -85.98606 | 38012 ft | 473 kts | 243° |
| 2026-04-25 02:43 | 49.61430 | -86.08012 | 38018 ft | 472 kts | 243° |
| 2026-04-25 02:43 | 49.58989 | -86.17333 | 38015 ft | 471 kts | 243° |
| 2026-04-25 02:44 | 49.56534 | -86.26674 | 38017 ft | 470 kts | 243° |
| 2026-04-25 02:44 | 49.54070 | -86.36005 | 38007 ft | 469 kts | 243° |
| 2026-04-25 02:45 | 49.51609 | -86.45296 | 38034 ft | 468 kts | 242° |
| 2026-04-25 02:45 | 49.49160 | -86.54501 | 38021 ft | 466 kts | 242° |
| 2026-04-25 02:46 | 49.46700 | -86.63710 | 38042 ft | 464 kts | 242° |
| 2026-04-25 02:46 | 49.44258 | -86.72816 | 38021 ft | 462 kts | 242° |
| 2026-04-25 02:47 | 49.41806 | -86.81920 | 38007 ft | 460 kts | 242° |
| 2026-04-25 02:47 | 49.39359 | -86.90973 | 37958 ft | 460 kts | 241° |
| 2026-04-25 02:48 | 49.36898 | -87.00039 | 37959 ft | 459 kts | 241° |
| 2026-04-25 02:48 | 49.34434 | -87.09084 | 37957 ft | 459 kts | 241° |
| 2026-04-25 02:49 | 49.31961 | -87.18124 | 37965 ft | 460 kts | 241° |
| 2026-04-25 02:49 | 49.29473 | -87.27187 | 37963 ft | 462 kts | 241° |
| 2026-04-25 02:50 | 49.26983 | -87.36222 | 37988 ft | 465 kts | 240° |
| 2026-04-25 02:50 | 49.24456 | -87.45354 | 37979 ft | 466 kts | 240° |
| 2026-04-25 02:51 | 49.21914 | -87.54509 | 37989 ft | 468 kts | 240° |
| 2026-04-25 02:51 | 49.19354 | -87.63694 | 37999 ft | 469 kts | 240° |
| 2026-04-25 02:52 | 49.16800 | -87.72820 | 38002 ft | 470 kts | 240° |
| 2026-04-25 02:52 | 49.14219 | -87.82006 | 38011 ft | 471 kts | 240° |
| 2026-04-25 02:53 | 49.11622 | -87.91216 | 38004 ft | 472 kts | 240° |
| 2026-04-25 02:53 | 49.09019 | -88.00410 | 37998 ft | 471 kts | 240° |
| 2026-04-25 02:54 | 49.06423 | -88.09543 | 38002 ft | 471 kts | 240° |
| 2026-04-25 02:54 | 49.03806 | -88.18715 | 37997 ft | 470 kts | 240° |
| 2026-04-25 02:55 | 49.01188 | -88.27855 | 37957 ft | 471 kts | 241° |
| 2026-04-25 02:55 | 48.98573 | -88.36948 | 37972 ft | 471 kts | 241° |
| 2026-04-25 02:56 | 48.95929 | -88.46112 | 37979 ft | 472 kts | 241° |
| 2026-04-25 02:56 | 48.93281 | -88.55251 | 37985 ft | 472 kts | 240° |
| 2026-04-25 02:57 | 48.90638 | -88.64342 | 37996 ft | 473 kts | 240° |
| 2026-04-25 02:57 | 48.87958 | -88.73522 | 37977 ft | 474 kts | 241° |
| 2026-04-25 02:58 | 48.85272 | -88.82691 | 37991 ft | 475 kts | 241° |
| 2026-04-25 02:58 | 48.82593 | -88.91803 | 37998 ft | 476 kts | 240° |
| 2026-04-25 02:59 | 48.79883 | -89.00982 | 38006 ft | 476 kts | 240° |
| 2026-04-25 02:59 | 48.77164 | -89.10157 | 38009 ft | 477 kts | 240° |
| 2026-04-25 03:00 | 48.74436 | -89.19325 | 38018 ft | 477 kts | 241° |
| 2026-04-25 03:00 | 48.71721 | -89.28423 | 38010 ft | 476 kts | 241° |
| 2026-04-25 03:01 | 48.68983 | -89.37564 | 38005 ft | 476 kts | 241° |
| 2026-04-25 03:01 | 48.66240 | -89.46682 | 37998 ft | 475 kts | 241° |
| 2026-04-25 03:02 | 48.63497 | -89.55767 | 38004 ft | 475 kts | 241° |
| 2026-04-25 03:02 | 48.62116 | -89.60330 | 38273 ft | 477 kts | 241° |
| 2026-04-25 03:02 | 48.60734 | -89.64895 | 38672 ft | 477 kts | 241° |
| 2026-04-25 03:02 | 48.59367 | -89.69407 | 38973 ft | 477 kts | 241° |
| 2026-04-25 03:03 | 48.57985 | -89.73960 | 39257 ft | 477 kts | 241° |
| 2026-04-25 03:03 | 48.56596 | -89.78529 | 39518 ft | 478 kts | 241° |
| 2026-04-25 03:03 | 48.55206 | -89.83094 | 39777 ft | 479 kts | 242° |
| 2026-04-25 03:03 | 48.53809 | -89.87671 | 39975 ft | 481 kts | 242° |
| 2026-04-25 03:04 | 48.52402 | -89.92272 | 40004 ft | 482 kts | 242° |
| 2026-04-25 03:04 | 48.49582 | -90.01260 | 40020 ft | 474 kts | 240° |
| 2026-04-25 03:05 | 48.44937 | -90.14450 | 40001 ft | 474 kts | 239° |
| 2026-04-25 03:05 | 48.41893 | -90.23198 | 39995 ft | 472 kts | 239° |
| 2026-04-25 03:06 | 48.38836 | -90.31941 | 39991 ft | 471 kts | 239° |
| 2026-04-25 03:06 | 48.35771 | -90.40650 | 39986 ft | 471 kts | 239° |
| 2026-04-25 03:07 | 48.32714 | -90.49300 | 39994 ft | 471 kts | 239° |
| 2026-04-25 03:07 | 48.29632 | -90.57994 | 39989 ft | 470 kts | 238° |
| 2026-04-25 03:08 | 48.26549 | -90.66661 | 39983 ft | 470 kts | 238° |
| 2026-04-25 03:08 | 48.23456 | -90.75327 | 39981 ft | 470 kts | 238° |
| 2026-04-25 03:09 | 48.20377 | -90.83925 | 39985 ft | 470 kts | 238° |
| 2026-04-25 03:09 | 48.17276 | -90.92559 | 39987 ft | 471 kts | 238° |
| 2026-04-25 03:10 | 48.14162 | -91.01200 | 39988 ft | 470 kts | 238° |
| 2026-04-25 03:10 | 48.11067 | -91.09759 | 39984 ft | 470 kts | 238° |
| 2026-04-25 03:11 | 48.07944 | -91.18367 | 39982 ft | 470 kts | 238° |
| 2026-04-25 03:11 | 48.04818 | -91.26955 | 39974 ft | 470 kts | 238° |
| 2026-04-25 03:12 | 48.01683 | -91.35539 | 39967 ft | 471 kts | 238° |
| 2026-04-25 03:12 | 47.99070 | -91.42671 | 39972 ft | 470 kts | 238° |
| 2026-04-25 03:13 | 47.95411 | -91.52630 | 39974 ft | 471 kts | 238° |
| 2026-04-25 03:13 | 47.92768 | -91.59801 | 39972 ft | 471 kts | 238° |
| 2026-04-25 03:14 | 47.89620 | -91.68317 | 39974 ft | 471 kts | 238° |
| 2026-04-25 03:14 | 47.86447 | -91.76869 | 39961 ft | 471 kts | 238° |
| 2026-04-25 03:15 | 47.83262 | -91.85429 | 39975 ft | 471 kts | 238° |
| 2026-04-25 03:15 | 47.80096 | -91.93909 | 39993 ft | 471 kts | 238° |
| 2026-04-25 03:16 | 47.76902 | -92.02438 | 39991 ft | 471 kts | 238° |
| 2026-04-25 03:16 | 47.73700 | -92.10961 | 39998 ft | 472 kts | 238° |
| 2026-04-25 03:17 | 47.70488 | -92.19482 | 39979 ft | 472 kts | 237° |
| 2026-04-25 03:17 | 47.67290 | -92.27941 | 39984 ft | 472 kts | 237° |
| 2026-04-25 03:18 | 47.64110 | -92.36324 | 39986 ft | 472 kts | 237° |
| 2026-04-25 03:18 | 47.60896 | -92.44770 | 39991 ft | 472 kts | 237° |
| 2026-04-25 03:19 | 47.57660 | -92.53246 | 40007 ft | 473 kts | 237° |
| 2026-04-25 03:19 | 47.54416 | -92.61719 | 39991 ft | 473 kts | 238° |
| 2026-04-25 03:20 | 47.51161 | -92.70192 | 39994 ft | 473 kts | 238° |
| 2026-04-25 03:20 | 47.47897 | -92.78664 | 39992 ft | 473 kts | 237° |
| 2026-04-25 03:21 | 47.44649 | -92.87065 | 39990 ft | 473 kts | 237° |
| 2026-04-25 03:21 | 47.41373 | -92.95512 | 39985 ft | 474 kts | 237° |
| 2026-04-25 03:22 | 47.38092 | -93.03949 | 39987 ft | 473 kts | 237° |
| 2026-04-25 03:22 | 47.34803 | -93.12375 | 39988 ft | 473 kts | 237° |
| 2026-04-25 03:23 | 47.31527 | -93.20744 | 40012 ft | 473 kts | 237° |
| 2026-04-25 03:23 | 47.28221 | -93.29166 | 40016 ft | 473 kts | 237° |
| 2026-04-25 03:24 | 47.24938 | -93.37500 | 40017 ft | 473 kts | 238° |
| 2026-04-25 03:24 | 47.21629 | -93.45875 | 40016 ft | 473 kts | 238° |
| 2026-04-25 03:25 | 47.18313 | -93.54242 | 40014 ft | 473 kts | 238° |
| 2026-04-25 03:25 | 47.14993 | -93.62594 | 40013 ft | 473 kts | 237° |
| 2026-04-25 03:26 | 47.11688 | -93.70883 | 40002 ft | 472 kts | 238° |
| 2026-04-25 03:26 | 47.08360 | -93.79204 | 40008 ft | 472 kts | 238° |
| 2026-04-25 03:27 | 47.05022 | -93.87525 | 40006 ft | 472 kts | 238° |
| 2026-04-25 03:27 | 47.01690 | -93.95820 | 40007 ft | 472 kts | 238° |
| 2026-04-25 03:28 | 46.98238 | -94.03929 | 40007 ft | 471 kts | 234° |
| 2026-04-25 03:28 | 46.94602 | -94.11928 | 40017 ft | 471 kts | 235° |
| 2026-04-25 03:29 | 46.90998 | -94.19936 | 40014 ft | 471 kts | 235° |
| 2026-04-25 03:29 | 46.87393 | -94.27929 | 40017 ft | 470 kts | 235° |
| 2026-04-25 03:30 | 46.83809 | -94.35845 | 40005 ft | 469 kts | 235° |
| 2026-04-25 03:30 | 46.80198 | -94.43789 | 39999 ft | 468 kts | 235° |
| 2026-04-25 03:31 | 46.76584 | -94.51708 | 39997 ft | 468 kts | 235° |
| 2026-04-25 03:31 | 46.72997 | -94.59547 | 39995 ft | 468 kts | 235° |
| 2026-04-25 03:32 | 46.69372 | -94.67445 | 39992 ft | 467 kts | 235° |
| 2026-04-25 03:32 | 46.65750 | -94.75314 | 39992 ft | 467 kts | 235° |
| 2026-04-25 03:33 | 46.62140 | -94.83136 | 39992 ft | 467 kts | 235° |
| 2026-04-25 03:33 | 46.58502 | -94.90995 | 39973 ft | 469 kts | 235° |
| 2026-04-25 03:34 | 46.54879 | -94.98800 | 39979 ft | 470 kts | 235° |
| 2026-04-25 03:34 | 46.51209 | -95.06686 | 39988 ft | 471 kts | 235° |
| 2026-04-25 03:35 | 46.47544 | -95.14537 | 39996 ft | 473 kts | 235° |
| 2026-04-25 03:35 | 46.43388 | -95.23412 | 40031 ft | 473 kts | 235° |
| 2026-04-25 03:36 | 46.35951 | -95.39226 | 40017 ft | 474 kts | 235° |
| 2026-04-25 03:36 | 46.28502 | -95.54978 | 40010 ft | 474 kts | 235° |
| 2026-04-25 03:37 | 46.21093 | -95.70556 | 40022 ft | 472 kts | 236° |
| 2026-04-25 03:37 | 46.13649 | -95.86122 | 40003 ft | 470 kts | 235° |
| 2026-04-25 03:38 | 46.06218 | -96.01574 | 40008 ft | 468 kts | 236° |
| 2026-04-25 03:38 | 45.98792 | -96.16934 | 40002 ft | 465 kts | 236° |
| 2026-04-25 03:39 | 45.91431 | -96.32077 | 40000 ft | 464 kts | 235° |
| 2026-04-25 03:39 | 45.84014 | -96.47253 | 40009 ft | 463 kts | 235° |
| 2026-04-25 03:40 | 45.76585 | -96.62370 | 39976 ft | 463 kts | 235° |
| 2026-04-25 03:40 | 45.69131 | -96.77459 | 39979 ft | 464 kts | 235° |
| 2026-04-25 03:41 | 45.61641 | -96.92539 | 39982 ft | 465 kts | 235° |
| 2026-04-25 03:41 | 45.54172 | -97.07498 | 39995 ft | 465 kts | 235° |
| 2026-04-25 03:42 | 45.46635 | -97.22515 | 39998 ft | 465 kts | 235° |
| 2026-04-25 03:42 | 45.39077 | -97.37493 | 39999 ft | 465 kts | 235° |
| 2026-04-25 03:43 | 45.31559 | -97.52315 | 40009 ft | 464 kts | 234° |
| 2026-04-25 03:43 | 45.23971 | -97.67195 | 40002 ft | 463 kts | 234° |
| 2026-04-25 03:44 | 45.16392 | -97.81983 | 40006 ft | 463 kts | 234° |
| 2026-04-25 03:44 | 45.08785 | -97.96747 | 40016 ft | 463 kts | 234° |
| 2026-04-25 03:45 | 45.01172 | -98.11447 | 40020 ft | 463 kts | 234° |
| 2026-04-25 03:45 | 44.93581 | -98.26032 | 40020 ft | 463 kts | 234° |
| 2026-04-25 03:46 | 44.85934 | -98.40647 | 40031 ft | 462 kts | 234° |
| 2026-04-25 03:46 | 44.78257 | -98.55247 | 40024 ft | 463 kts | 234° |
| 2026-04-25 03:47 | 44.70553 | -98.69822 | 40032 ft | 464 kts | 234° |
| 2026-04-25 03:47 | 44.62865 | -98.84293 | 40030 ft | 465 kts | 234° |
| 2026-04-25 03:48 | 44.55104 | -98.98831 | 40034 ft | 465 kts | 234° |
| 2026-04-25 03:48 | 44.47299 | -99.13375 | 40028 ft | 467 kts | 234° |
| 2026-04-25 03:49 | 44.39472 | -99.27889 | 40040 ft | 468 kts | 234° |
| 2026-04-25 03:49 | 44.31649 | -99.42322 | 40041 ft | 468 kts | 234° |
| 2026-04-25 03:50 | 44.23740 | -99.56842 | 40024 ft | 469 kts | 234° |
| 2026-04-25 03:50 | 44.15805 | -99.71336 | 40045 ft | 469 kts | 234° |
| 2026-04-25 03:51 | 44.07918 | -99.85681 | 40038 ft | 469 kts | 234° |
| 2026-04-25 03:51 | 43.99967 | -100.00087 | 40038 ft | 469 kts | 234° |
| 2026-04-25 03:52 | 43.92233 | -100.14648 | 40056 ft | 466 kts | 236° |
| 2026-04-25 03:52 | 43.84573 | -100.29135 | 40062 ft | 464 kts | 236° |
| 2026-04-25 03:53 | 43.76971 | -100.43419 | 40050 ft | 462 kts | 236° |
| 2026-04-25 03:53 | 43.69344 | -100.57663 | 40055 ft | 460 kts | 236° |
| 2026-04-25 03:54 | 43.61715 | -100.71841 | 40049 ft | 459 kts | 236° |
| 2026-04-25 03:54 | 43.54070 | -100.85979 | 40039 ft | 459 kts | 236° |
| 2026-04-25 03:55 | 43.46409 | -101.00079 | 40035 ft | 459 kts | 236° |
| 2026-04-25 03:55 | 43.38776 | -101.14062 | 40039 ft | 459 kts | 236° |
| 2026-04-25 03:56 | 43.31073 | -101.28106 | 40058 ft | 460 kts | 236° |
| 2026-04-25 03:56 | 43.23364 | -101.42091 | 40074 ft | 458 kts | 236° |
| 2026-04-25 03:57 | 43.15663 | -101.55999 | 40045 ft | 456 kts | 236° |
| 2026-04-25 03:57 | 43.08032 | -101.69716 | 40060 ft | 454 kts | 236° |
| 2026-04-25 03:58 | 43.00381 | -101.83404 | 40041 ft | 451 kts | 236° |
| 2026-04-25 03:58 | 42.92731 | -101.97029 | 40015 ft | 450 kts | 236° |
| 2026-04-25 03:59 | 42.85107 | -102.10544 | 40025 ft | 449 kts | 236° |
| 2026-04-25 03:59 | 42.77543 | -102.23893 | 40001 ft | 447 kts | 236° |
| 2026-04-25 04:00 | 42.69922 | -102.37282 | 39992 ft | 447 kts | 236° |
| 2026-04-25 04:00 | 42.62285 | -102.50639 | 39993 ft | 447 kts | 236° |
| 2026-04-25 04:01 | 42.54668 | -102.63901 | 39981 ft | 448 kts | 236° |
| 2026-04-25 04:01 | 42.46987 | -102.77216 | 39967 ft | 448 kts | 236° |
| 2026-04-25 04:02 | 42.40603 | -102.88237 | 39985 ft | 447 kts | 236° |
| 2026-04-25 04:02 | 42.32918 | -103.01451 | 39975 ft | 445 kts | 235° |
| 2026-04-25 04:03 | 42.25282 | -103.14523 | 39950 ft | 444 kts | 235° |
| 2026-04-25 04:03 | 42.17623 | -103.27577 | 39984 ft | 443 kts | 235° |
| 2026-04-25 04:04 | 42.09948 | -103.40601 | 39997 ft | 443 kts | 235° |
| 2026-04-25 04:04 | 42.02276 | -103.53566 | 40005 ft | 442 kts | 234° |
| 2026-04-25 04:05 | 41.94659 | -103.66380 | 40004 ft | 441 kts | 234° |
| 2026-04-25 04:05 | 41.86979 | -103.79245 | 39998 ft | 441 kts | 234° |
| 2026-04-25 04:06 | 41.79297 | -103.92061 | 40003 ft | 440 kts | 234° |
| 2026-04-25 04:06 | 41.71640 | -104.04777 | 40006 ft | 441 kts | 234° |
| 2026-04-25 04:07 | 41.63902 | -104.17579 | 39991 ft | 442 kts | 234° |
| 2026-04-25 04:07 | 41.56139 | -104.30367 | 39978 ft | 443 kts | 234° |
| 2026-04-25 04:08 | 41.48348 | -104.43142 | 39977 ft | 443 kts | 234° |
| 2026-04-25 04:08 | 41.40594 | -104.55808 | 39973 ft | 444 kts | 234° |
| 2026-04-25 04:09 | 41.32762 | -104.68546 | 39960 ft | 444 kts | 234° |
| 2026-04-25 04:09 | 41.24912 | -104.81260 | 39947 ft | 444 kts | 234° |
| 2026-04-25 04:10 | 41.17104 | -104.93851 | 39913 ft | 443 kts | 234° |
| 2026-04-25 04:10 | 41.09236 | -105.06491 | 39914 ft | 445 kts | 234° |
| 2026-04-25 04:11 | 40.97322 | -105.25528 | 39837 ft | 448 kts | 234° |
| 2026-04-25 04:12 | 40.89363 | -105.38178 | 39787 ft | 445 kts | 234° |
| 2026-04-25 04:12 | 40.81514 | -105.50603 | 39718 ft | 441 kts | 234° |
| 2026-04-25 04:13 | 40.73654 | -105.62996 | 39695 ft | 438 kts | 234° |
| 2026-04-25 04:13 | 40.65804 | -105.75324 | 39685 ft | 442 kts | 233° |
| 2026-04-25 04:14 | 40.57819 | -105.87826 | 39691 ft | 445 kts | 233° |
| 2026-04-25 04:14 | 40.49915 | -106.00253 | 39706 ft | 444 kts | 237° |
| 2026-04-25 04:15 | 40.43426 | -106.13940 | 39691 ft | 440 kts | 242° |
| 2026-04-25 04:15 | 40.36989 | -106.27615 | 39666 ft | 440 kts | 241° |
| 2026-04-25 04:16 | 40.30523 | -106.41255 | 39699 ft | 441 kts | 242° |
| 2026-04-25 04:16 | 40.24020 | -106.54911 | 39705 ft | 441 kts | 241° |
| 2026-04-25 04:17 | 40.17543 | -106.68453 | 39727 ft | 441 kts | 241° |
| 2026-04-25 04:17 | 40.10991 | -106.82092 | 39748 ft | 441 kts | 241° |
| 2026-04-25 04:18 | 40.04456 | -106.95635 | 39772 ft | 439 kts | 241° |
| 2026-04-25 04:18 | 39.97978 | -107.09005 | 39760 ft | 438 kts | 241° |
| 2026-04-25 04:19 | 39.91431 | -107.22460 | 39756 ft | 439 kts | 241° |
| 2026-04-25 04:19 | 39.84858 | -107.35911 | 39748 ft | 439 kts | 241° |
| 2026-04-25 04:20 | 39.78284 | -107.49303 | 39770 ft | 438 kts | 241° |
| 2026-04-25 04:20 | 39.71762 | -107.62535 | 39799 ft | 436 kts | 241° |
| 2026-04-25 04:21 | 39.65211 | -107.75770 | 39818 ft | 435 kts | 241° |
| 2026-04-25 04:21 | 39.61925 | -107.82389 | 39697 ft | 435 kts | 241° |
| 2026-04-25 04:21 | 39.58646 | -107.88981 | 39684 ft | 435 kts | 241° |
| 2026-04-25 04:22 | 39.52104 | -108.02088 | 39711 ft | 435 kts | 241° |
| 2026-04-25 04:22 | 39.45506 | -108.15247 | 39679 ft | 434 kts | 240° |
| 2026-04-25 04:23 | 39.38905 | -108.28371 | 39690 ft | 436 kts | 240° |
| 2026-04-25 04:23 | 39.32264 | -108.41514 | 39761 ft | 437 kts | 240° |
| 2026-04-25 04:24 | 39.25600 | -108.54646 | 39798 ft | 437 kts | 240° |
| 2026-04-25 04:24 | 39.18956 | -108.67686 | 39797 ft | 437 kts | 240° |
| 2026-04-25 04:25 | 39.12264 | -108.80766 | 39687 ft | 436 kts | 240° |
| 2026-04-25 04:25 | 39.05573 | -108.93791 | 39676 ft | 435 kts | 240° |
| 2026-04-25 04:26 | 38.98919 | -109.06691 | 39672 ft | 435 kts | 240° |
| 2026-04-25 04:26 | 38.92223 | -109.19625 | 39674 ft | 435 kts | 240° |
| 2026-04-25 04:27 | 38.85486 | -109.32583 | 39673 ft | 435 kts | 239° |
| 2026-04-25 04:27 | 38.78759 | -109.45469 | 39675 ft | 434 kts | 239° |
| 2026-04-25 04:28 | 38.72050 | -109.58270 | 39669 ft | 435 kts | 239° |
| 2026-04-25 04:28 | 38.65287 | -109.71125 | 39668 ft | 435 kts | 239° |
| 2026-04-25 04:29 | 38.58499 | -109.83973 | 39662 ft | 435 kts | 239° |
| 2026-04-25 04:29 | 38.51697 | -109.96815 | 39668 ft | 436 kts | 239° |
| 2026-04-25 04:30 | 38.45016 | -110.09562 | 39672 ft | 433 kts | 240° |
| 2026-04-25 04:30 | 38.38372 | -110.22336 | 39662 ft | 431 kts | 240° |
| 2026-04-25 04:31 | 38.31705 | -110.35080 | 39645 ft | 431 kts | 239° |
| 2026-04-25 04:31 | 38.25024 | -110.47803 | 39668 ft | 432 kts | 239° |
| 2026-04-25 04:32 | 38.18358 | -110.60442 | 39671 ft | 433 kts | 239° |
| 2026-04-25 04:32 | 38.11637 | -110.73139 | 39718 ft | 432 kts | 239° |
| 2026-04-25 04:33 | 38.04899 | -110.85821 | 39703 ft | 433 kts | 239° |
| 2026-04-25 04:33 | 37.98158 | -110.98457 | 39711 ft | 431 kts | 239° |
| 2026-04-25 04:34 | 37.91453 | -111.10979 | 39711 ft | 430 kts | 239° |
| 2026-04-25 04:34 | 37.84711 | -111.23523 | 39723 ft | 430 kts | 239° |
| 2026-04-25 04:35 | 37.78022 | -111.35920 | 39741 ft | 428 kts | 239° |
| 2026-04-25 04:35 | 37.71294 | -111.48342 | 39735 ft | 427 kts | 239° |
| 2026-04-25 04:36 | 37.64557 | -111.60735 | 39741 ft | 427 kts | 239° |
| 2026-04-25 04:36 | 37.57808 | -111.73105 | 39743 ft | 428 kts | 239° |
| 2026-04-25 04:37 | 37.52973 | -111.81939 | 39778 ft | 429 kts | 239° |
| 2026-04-25 04:37 | 37.49581 | -111.88123 | 39800 ft | 429 kts | 238° |
| 2026-04-25 04:38 | 37.46040 | -111.94196 | 39815 ft | 429 kts | 237° |
| 2026-04-25 04:38 | 37.42470 | -112.00228 | 39808 ft | 430 kts | 237° |
| 2026-04-25 04:39 | 37.38932 | -112.06243 | 39792 ft | 429 kts | 237° |
| 2026-04-25 04:39 | 37.35386 | -112.12289 | 39766 ft | 429 kts | 237° |
| 2026-04-25 04:40 | 37.31851 | -112.18326 | 39760 ft | 429 kts | 237° |
| 2026-04-25 04:40 | 37.28311 | -112.24355 | 39765 ft | 428 kts | 237° |
| 2026-04-25 04:41 | 37.24768 | -112.30375 | 39762 ft | 428 kts | 237° |
| 2026-04-25 04:41 | 37.21247 | -112.36348 | 39772 ft | 428 kts | 237° |
| 2026-04-25 04:42 | 37.17699 | -112.42355 | 39768 ft | 428 kts | 237° |
| 2026-04-25 04:42 | 37.14152 | -112.48349 | 39780 ft | 426 kts | 237° |
| 2026-04-25 04:43 | 37.10636 | -112.54282 | 39773 ft | 426 kts | 237° |
| 2026-04-25 04:43 | 37.07098 | -112.60242 | 39772 ft | 426 kts | 237° |
| 2026-04-25 04:44 | 37.03561 | -112.66191 | 39806 ft | 425 kts | 238° |
| 2026-04-25 04:44 | 37.00023 | -112.72139 | 39842 ft | 425 kts | 237° |
| 2026-04-25 04:45 | 36.96508 | -112.78036 | 39874 ft | 425 kts | 237° |
| 2026-04-25 04:45 | 36.92966 | -112.83969 | 39905 ft | 425 kts | 237° |
| 2026-04-25 04:46 | 36.89425 | -112.89888 | 39925 ft | 425 kts | 237° |
| 2026-04-25 04:46 | 36.85879 | -112.95807 | 39928 ft | 425 kts | 237° |
| 2026-04-25 04:47 | 36.82353 | -113.01679 | 39911 ft | 425 kts | 237° |
| 2026-04-25 04:47 | 36.78804 | -113.07581 | 39900 ft | 424 kts | 237° |
| 2026-04-25 04:48 | 36.75258 | -113.13468 | 39859 ft | 423 kts | 237° |
| 2026-04-25 04:48 | 36.71738 | -113.19301 | 39823 ft | 423 kts | 237° |
| 2026-04-25 04:49 | 36.68201 | -113.25153 | 39779 ft | 422 kts | 237° |
| 2026-04-25 04:49 | 36.64657 | -113.31006 | 39761 ft | 422 kts | 237° |
| 2026-04-25 04:50 | 36.61157 | -113.36825 | 39751 ft | 421 kts | 238° |
| 2026-04-25 04:50 | 36.57795 | -113.42802 | 39746 ft | 421 kts | 239° |
| 2026-04-25 04:51 | 36.54441 | -113.48768 | 39748 ft | 421 kts | 239° |
| 2026-04-25 04:51 | 36.51063 | -113.54718 | 39737 ft | 421 kts | 239° |
| 2026-04-25 04:52 | 36.47692 | -113.60634 | 39739 ft | 421 kts | 239° |
| 2026-04-25 04:52 | 36.44298 | -113.66578 | 39728 ft | 421 kts | 239° |
| 2026-04-25 04:53 | 36.41476 | -113.71513 | 39729 ft | 421 kts | 239° |
| 2026-04-25 04:53 | 36.38074 | -113.77453 | 39735 ft | 421 kts | 239° |
| 2026-04-25 04:54 | 36.34673 | -113.83380 | 39732 ft | 421 kts | 239° |
| 2026-04-25 04:54 | 36.31292 | -113.89264 | 39694 ft | 420 kts | 239° |
| 2026-04-25 04:55 | 36.27892 | -113.95168 | 39688 ft | 420 kts | 239° |
| 2026-04-25 04:55 | 36.24496 | -114.01059 | 39676 ft | 419 kts | 239° |
| 2026-04-25 04:56 | 36.21109 | -114.06921 | 39669 ft | 418 kts | 239° |
| 2026-04-25 04:56 | 36.17721 | -114.12775 | 39675 ft | 417 kts | 239° |
| 2026-04-25 04:57 | 36.14363 | -114.18569 | 39658 ft | 417 kts | 239° |
| 2026-04-25 04:57 | 36.10972 | -114.24411 | 39659 ft | 417 kts | 239° |
| 2026-04-25 04:58 | 36.07446 | -114.30134 | 39662 ft | 420 kts | 235° |
| 2026-04-25 04:58 | 36.03536 | -114.35538 | 39659 ft | 421 kts | 234° |
| 2026-04-25 04:59 | 35.99649 | -114.40918 | 39657 ft | 421 kts | 234° |
| 2026-04-25 04:59 | 35.95738 | -114.46331 | 39679 ft | 422 kts | 234° |
| 2026-04-25 05:00 | 35.91823 | -114.51739 | 39701 ft | 422 kts | 234° |
| 2026-04-25 05:00 | 35.87903 | -114.57141 | 39723 ft | 422 kts | 234° |
| 2026-04-25 05:01 | 35.84005 | -114.62508 | 39682 ft | 422 kts | 233° |
| 2026-04-25 05:01 | 35.80075 | -114.67910 | 39723 ft | 422 kts | 233° |
| 2026-04-25 05:02 | 35.76171 | -114.73267 | 39725 ft | 422 kts | 233° |
| 2026-04-25 05:02 | 35.72241 | -114.78650 | 39754 ft | 422 kts | 233° |
| 2026-04-25 05:03 | 35.68309 | -114.84028 | 39757 ft | 421 kts | 233° |
| 2026-04-25 05:03 | 35.64409 | -114.89360 | 39760 ft | 422 kts | 233° |
| 2026-04-25 05:04 | 35.60484 | -114.94732 | 39767 ft | 422 kts | 233° |
| 2026-04-25 05:04 | 35.56560 | -115.00094 | 39766 ft | 422 kts | 233° |
| 2026-04-25 05:05 | 35.52633 | -115.05449 | 39773 ft | 421 kts | 233° |
| 2026-04-25 05:05 | 35.48710 | -115.10744 | 39772 ft | 422 kts | 232° |
| 2026-04-25 05:06 | 35.44666 | -115.15998 | 39760 ft | 423 kts | 233° |
| 2026-04-25 05:06 | 35.40628 | -115.21243 | 39795 ft | 422 kts | 233° |
| 2026-04-25 05:07 | 35.36599 | -115.26492 | 39798 ft | 422 kts | 233° |
| 2026-04-25 05:07 | 35.32595 | -115.31703 | 39806 ft | 422 kts | 233° |
| 2026-04-25 05:08 | 35.28655 | -115.36822 | 39805 ft | 421 kts | 233° |
| 2026-04-25 05:08 | 35.24637 | -115.42035 | 39807 ft | 420 kts | 233° |
| 2026-04-25 05:09 | 35.20627 | -115.47230 | 39807 ft | 419 kts | 233° |
| 2026-04-25 05:09 | 35.16644 | -115.52382 | 39793 ft | 419 kts | 233° |
| 2026-04-25 05:10 | 35.12653 | -115.57532 | 39350 ft | 413 kts | 233° |
| 2026-04-25 05:10 | 35.10692 | -115.60050 | 39081 ft | 406 kts | 233° |
| 2026-04-25 05:10 | 35.08749 | -115.62534 | 38645 ft | 401 kts | 234° |
| 2026-04-25 05:10 | 35.06834 | -115.64980 | 38173 ft | 397 kts | 234° |
| 2026-04-25 05:11 | 35.04963 | -115.67369 | 37710 ft | 392 kts | 234° |
| 2026-04-25 05:11 | 35.03088 | -115.69764 | 37252 ft | 387 kts | 234° |
| 2026-04-25 05:11 | 35.01237 | -115.72127 | 36823 ft | 382 kts | 234° |
| 2026-04-25 05:12 | 34.97602 | -115.76764 | 35972 ft | 373 kts | 234° |
| 2026-04-25 05:12 | 34.95816 | -115.79040 | 35570 ft | 369 kts | 233° |
| 2026-04-25 05:12 | 34.94055 | -115.81283 | 35164 ft | 365 kts | 233° |
| 2026-04-25 05:12 | 34.92306 | -115.83508 | 34760 ft | 360 kts | 233° |
| 2026-04-25 05:13 | 34.90607 | -115.85668 | 34374 ft | 356 kts | 233° |
| 2026-04-25 05:13 | 34.88899 | -115.87839 | 33980 ft | 352 kts | 233° |
| 2026-04-25 05:13 | 34.87212 | -115.89981 | 33556 ft | 349 kts | 233° |
| 2026-04-25 05:13 | 34.85535 | -115.92111 | 32969 ft | 348 kts | 233° |
| 2026-04-25 05:14 | 34.83854 | -115.94245 | 32378 ft | 348 kts | 233° |
| 2026-04-25 05:14 | 34.82182 | -115.96367 | 31849 ft | 347 kts | 233° |
| 2026-04-25 05:14 | 34.80508 | -115.98488 | 31245 ft | 347 kts | 233° |
| 2026-04-25 05:15 | 34.77164 | -116.02724 | 30088 ft | 349 kts | 233° |
| 2026-04-25 05:15 | 34.75483 | -116.04858 | 29535 ft | 349 kts | 233° |
| 2026-04-25 05:15 | 34.73812 | -116.06988 | 29030 ft | 347 kts | 233° |
| 2026-04-25 05:15 | 34.72156 | -116.09100 | 28528 ft | 344 kts | 233° |
| 2026-04-25 05:16 | 34.70503 | -116.11207 | 28040 ft | 342 kts | 233° |
| 2026-04-25 05:16 | 34.68860 | -116.13298 | 27540 ft | 341 kts | 233° |
| 2026-04-25 05:16 | 34.67246 | -116.15351 | 27058 ft | 339 kts | 233° |
| 2026-04-25 05:16 | 34.65621 | -116.17417 | 26566 ft | 337 kts | 233° |
| 2026-04-25 05:17 | 34.64003 | -116.19472 | 26111 ft | 336 kts | 233° |
| 2026-04-25 05:17 | 34.62387 | -116.21525 | 25663 ft | 334 kts | 233° |
| 2026-04-25 05:17 | 34.60782 | -116.23562 | 25201 ft | 333 kts | 233° |
| 2026-04-25 05:17 | 34.59200 | -116.25567 | 24775 ft | 332 kts | 233° |
| 2026-04-25 05:18 | 34.57586 | -116.27614 | 24264 ft | 332 kts | 233° |
| 2026-04-25 05:18 | 34.56001 | -116.29621 | 23884 ft | 331 kts | 233° |
| 2026-04-25 05:18 | 34.54419 | -116.31622 | 23789 ft | 329 kts | 233° |
| 2026-04-25 05:18 | 34.52823 | -116.33641 | 23770 ft | 331 kts | 233° |
| 2026-04-25 05:19 | 34.51229 | -116.35659 | 23774 ft | 332 kts | 233° |
| 2026-04-25 05:19 | 34.49631 | -116.37679 | 23769 ft | 332 kts | 233° |
| 2026-04-25 05:19 | 34.48028 | -116.39702 | 23786 ft | 332 kts | 233° |
| 2026-04-25 05:19 | 34.46426 | -116.41726 | 23780 ft | 333 kts | 232° |
| 2026-04-25 05:20 | 34.44837 | -116.43730 | 23778 ft | 334 kts | 233° |
| 2026-04-25 05:20 | 34.43222 | -116.45764 | 23783 ft | 334 kts | 232° |
| 2026-04-25 05:20 | 34.41666 | -116.47847 | 23778 ft | 329 kts | 240° |
| 2026-04-25 05:20 | 34.40503 | -116.50205 | 23784 ft | 325 kts | 247° |
| 2026-04-25 05:21 | 34.39511 | -116.52654 | 23795 ft | 324 kts | 249° |
| 2026-04-25 05:21 | 34.38551 | -116.55127 | 23794 ft | 324 kts | 249° |
| 2026-04-25 05:21 | 34.37580 | -116.57595 | 23777 ft | 325 kts | 248° |
| 2026-04-25 05:21 | 34.36594 | -116.60050 | 23796 ft | 330 kts | 248° |
| 2026-04-25 05:22 | 34.35576 | -116.62543 | 23795 ft | 331 kts | 248° |
| 2026-04-25 05:22 | 34.34549 | -116.65038 | 23816 ft | 330 kts | 248° |
| 2026-04-25 05:22 | 34.33523 | -116.67519 | 23815 ft | 330 kts | 248° |
| 2026-04-25 05:22 | 34.32506 | -116.70000 | 23769 ft | 327 kts | 248° |
| 2026-04-25 05:23 | 34.31507 | -116.72485 | 23448 ft | 327 kts | 248° |
| 2026-04-25 05:23 | 34.30518 | -116.74962 | 23014 ft | 326 kts | 248° |
| 2026-04-25 05:23 | 34.29545 | -116.77395 | 22571 ft | 324 kts | 248° |
| 2026-04-25 05:23 | 34.28562 | -116.79844 | 22127 ft | 322 kts | 248° |
| 2026-04-25 05:24 | 34.27584 | -116.82274 | 21685 ft | 321 kts | 248° |
| 2026-04-25 05:24 | 34.26611 | -116.84688 | 21234 ft | 319 kts | 248° |
| 2026-04-25 05:24 | 34.25637 | -116.87102 | 20817 ft | 317 kts | 248° |
| 2026-04-25 05:24 | 34.24669 | -116.89499 | 20378 ft | 317 kts | 247° |
| 2026-04-25 05:25 | 34.23704 | -116.91888 | 19976 ft | 315 kts | 247° |
| 2026-04-25 05:25 | 34.22746 | -116.94257 | 19570 ft | 313 kts | 247° |
| 2026-04-25 05:25 | 34.21789 | -116.96621 | 19164 ft | 312 kts | 246° |
| 2026-04-25 05:25 | 34.20853 | -116.98934 | 18938 ft | 309 kts | 246° |
| 2026-04-25 05:26 | 34.19893 | -117.01305 | 18884 ft | 310 kts | 246° |
| 2026-04-25 05:26 | 34.18954 | -117.03615 | 18903 ft | 310 kts | 246° |
| 2026-04-25 05:26 | 34.18007 | -117.05955 | 18910 ft | 311 kts | 246° |
| 2026-04-25 05:26 | 34.17054 | -117.08304 | 18892 ft | 312 kts | 246° |
| 2026-04-25 05:27 | 34.16099 | -117.10656 | 18893 ft | 312 kts | 246° |
| 2026-04-25 05:27 | 34.15176 | -117.12928 | 18897 ft | 311 kts | 246° |
| 2026-04-25 05:27 | 34.14215 | -117.15271 | 18916 ft | 312 kts | 244° |
| 2026-04-25 05:27 | 34.12819 | -117.17423 | 18804 ft | 338 kts | 231° |
| 2026-04-25 05:28 | 34.11500 | -117.19783 | 18862 ft | 341 kts | 249° |
| 2026-04-25 05:28 | 34.10893 | -117.22526 | 18615 ft | 339 kts | 263° |
| 2026-04-25 05:28 | 34.10675 | -117.25352 | 17683 ft | 347 kts | 266° |
| 2026-04-25 05:28 | 34.10473 | -117.28303 | 16626 ft | 356 kts | 264° |
| 2026-04-25 05:29 | 34.10167 | -117.31282 | 15858 ft | 356 kts | 262° |
| 2026-04-25 05:29 | 34.09780 | -117.34221 | 15048 ft | 353 kts | 261° |
| 2026-04-25 05:29 | 34.09347 | -117.37110 | 14473 ft | 345 kts | 260° |
| 2026-04-25 05:29 | 34.08903 | -117.39935 | 13945 ft | 340 kts | 260° |
| 2026-04-25 05:30 | 34.08459 | -117.42718 | 13469 ft | 333 kts | 260° |
| 2026-04-25 05:30 | 34.08035 | -117.45365 | 13303 ft | 318 kts | 260° |
| 2026-04-25 05:30 | 34.07625 | -117.47929 | 13070 ft | 304 kts | 260° |
| 2026-04-25 05:30 | 34.07187 | -117.50398 | 12557 ft | 297 kts | 255° |
| 2026-04-25 05:31 | 34.06574 | -117.52760 | 12212 ft | 291 kts | 253° |
| 2026-04-25 05:31 | 34.05979 | -117.55064 | 11829 ft | 283 kts | 254° |
| 2026-04-25 05:31 | 34.05407 | -117.57307 | 11458 ft | 275 kts | 254° |
| 2026-04-25 05:31 | 34.04856 | -117.59476 | 11103 ft | 275 kts | 254° |
| 2026-04-25 05:32 | 34.04293 | -117.61686 | 10756 ft | 277 kts | 254° |
| 2026-04-25 05:32 | 34.03722 | -117.63922 | 10368 ft | 277 kts | 253° |
| 2026-04-25 05:32 | 34.03150 | -117.66156 | 10092 ft | 283 kts | 253° |
| 2026-04-25 05:32 | 34.02555 | -117.68478 | 10015 ft | 295 kts | 253° |
| 2026-04-25 05:33 | 34.02070 | -117.70902 | 9966 ft | 298 kts | 262° |
| 2026-04-25 05:33 | 34.01849 | -117.73328 | 9834 ft | 288 kts | 264° |
| 2026-04-25 05:33 | 34.01636 | -117.75679 | 9640 ft | 275 kts | 263° |
| 2026-04-25 05:33 | 34.01418 | -117.77966 | 9102 ft | 274 kts | 263° |
| 2026-04-25 05:34 | 34.01195 | -117.80257 | 8474 ft | 275 kts | 263° |
| 2026-04-25 05:34 | 34.00973 | -117.82534 | 8130 ft | 271 kts | 263° |
| 2026-04-25 05:34 | 34.00756 | -117.84747 | 8000 ft | 269 kts | 263° |
| 2026-04-25 05:34 | 34.00536 | -117.86996 | 7649 ft | 271 kts | 263° |
| 2026-04-25 05:35 | 34.00313 | -117.89272 | 7196 ft | 272 kts | 263° |
| 2026-04-25 05:35 | 34.00111 | -117.91469 | 6999 ft | 254 kts | 264° |
| 2026-04-25 05:35 | 33.99955 | -117.93524 | 6883 ft | 236 kts | 264° |
| 2026-04-25 05:35 | 33.99771 | -117.95463 | 6377 ft | 233 kts | 263° |
| 2026-04-25 05:36 | 33.99571 | -117.97407 | 6045 ft | 233 kts | 263° |
| 2026-04-25 05:36 | 33.99374 | -117.99347 | 5975 ft | 233 kts | 263° |
| 2026-04-25 05:36 | 33.99179 | -118.01262 | 5926 ft | 233 kts | 263° |
| 2026-04-25 05:36 | 33.98989 | -118.03129 | 5760 ft | 207 kts | 263° |
| 2026-04-25 05:37 | 33.98818 | -118.04805 | 5186 ft | 204 kts | 263° |
| 2026-04-25 05:37 | 33.98643 | -118.06522 | 4984 ft | 206 kts | 263° |
| 2026-04-25 05:37 | 33.98469 | -118.08233 | 4532 ft | 205 kts | 262° |
| 2026-04-25 05:37 | 33.98293 | -118.09953 | 4083 ft | 206 kts | 262° |
| 2026-04-25 05:38 | 33.98117 | -118.11684 | 3978 ft | 209 kts | 262° |
| 2026-04-25 05:38 | 33.97939 | -118.13431 | 3997 ft | 209 kts | 262° |
| 2026-04-25 05:38 | 33.97763 | -118.15156 | 3991 ft | 203 kts | 262° |
| 2026-04-25 05:38 | 33.97595 | -118.16799 | 3963 ft | 200 kts | 262° |
| 2026-04-25 05:39 | 33.97426 | -118.18461 | 3746 ft | 198 kts | 262° |
| 2026-04-25 05:39 | 33.97259 | -118.20105 | 3461 ft | 195 kts | 262° |
| 2026-04-25 05:39 | 33.97095 | -118.21710 | 3192 ft | 191 kts | 262° |
| 2026-04-25 05:39 | 33.96933 | -118.23297 | 2938 ft | 188 kts | 262° |
| 2026-04-25 05:40 | 33.96784 | -118.24771 | 2708 ft | 167 kts | 262° |
| 2026-04-25 05:40 | 33.96647 | -118.26106 | 2486 ft | 157 kts | 261° |
| 2026-04-25 05:40 | 33.96518 | -118.27370 | 2278 ft | 156 kts | 261° |
| 2026-04-25 05:40 | 33.96385 | -118.28681 | 2068 ft | 155 kts | 261° |
| 2026-04-25 05:41 | 33.96253 | -118.29964 | 1856 ft | 154 kts | 261° |
| 2026-04-25 05:41 | 33.96126 | -118.31223 | 1661 ft | 148 kts | 261° |
| 2026-04-25 05:41 | 33.96001 | -118.32440 | 1458 ft | 145 kts | 261° |
| 2026-04-25 05:41 | 33.95879 | -118.33638 | 1262 ft | 143 kts | 261° |
| 2026-04-25 05:42 | 33.95758 | -118.34827 | 1067 ft | 143 kts | 261° |
| 2026-04-25 05:42 | 33.95638 | -118.36002 | 859 ft | 141 kts | 262° |
| 2026-04-25 05:42 | 33.95521 | -118.37157 | 669 ft | 137 kts | 262° |
| 2026-04-25 05:42 | 33.95406 | -118.38282 | 480 ft | 137 kts | 262° |
| 2026-04-25 05:43 | 33.95289 | -118.39421 | 296 ft | 136 kts | 261° |
| 2026-04-25 05:43 | 33.95159 | -118.40539 | 130 ft | 129 kts | 264° |
| 2026-04-25 05:43 | 33.95083 | -118.41419 | 126 ft | 85 kts | 263° |
| 2026-04-25 05:43 | 33.95045 | -118.41764 | 126 ft | 39 kts | 263° |
| 2026-04-25 05:44 | 33.95020 | -118.42052 | 127 ft | 31 kts | 264° |
| 2026-04-25 05:44 | 33.94986 | -118.42358 | 129 ft | 25 kts | 259° |
| 2026-04-25 05:44 | 33.94956 | -118.42488 | 127 ft | 23 kts | 250° |
| 2026-04-25 05:44 | 33.94884 | -118.42643 | 126 ft | 15 kts | 218° |
| 2026-04-25 05:45 | 33.94858 | -118.42672 | 125 ft | 1 kts | 225° |
| 2026-04-25 05:45 | 33.94839 | -118.42695 | 126 ft | 6 kts | 223° |
| 2026-04-25 05:45 | 33.94770 | -118.42753 | 127 ft | 17 kts | 207° |
| 2026-04-25 05:45 | 33.94672 | -118.42769 | 127 ft | 13 kts | 154° |
| 2026-04-25 05:46 | 33.94638 | -118.42678 | 130 ft | 14 kts | 85° |
| 2026-04-25 05:46 | 33.94651 | -118.42549 | 131 ft | 17 kts | 83° |
| 2026-04-25 05:46 | 33.94666 | -118.42389 | 128 ft | 21 kts | 83° |
| 2026-04-25 05:46 | 33.94684 | -118.42201 | 127 ft | 24 kts | 83° |
| 2026-04-25 05:47 | 33.94704 | -118.41996 | 126 ft | 26 kts | 81° |
| 2026-04-25 05:47 | 33.94733 | -118.41775 | 126 ft | 27 kts | 82° |
| 2026-04-25 05:47 | 33.94752 | -118.41576 | 129 ft | 22 kts | 84° |
| 2026-04-25 05:47 | 33.94772 | -118.41399 | 127 ft | 18 kts | 77° |
| 2026-04-25 05:48 | 33.94753 | -118.41290 | 127 ft | 10 kts | 155° |
| 2026-04-25 05:48 | 33.94672 | -118.41282 | 126 ft | 13 kts | 174° |
| 2026-04-25 05:48 | 33.94572 | -118.41265 | 127 ft | 16 kts | 172° |
| 2026-04-25 05:48 | 33.94455 | -118.41247 | 128 ft | 18 kts | 172° |
| 2026-04-25 05:49 | 33.94331 | -118.41227 | 128 ft | 15 kts | 173° |
| 2026-04-25 05:49 | 33.94264 | -118.41213 | 128 ft | 7 kts | 140° |
| 2026-04-25 05:49 | 33.94256 | -118.41193 | 126 ft | 3 kts | 83° |
| 2026-04-25 05:49 | 33.94259 | -118.41147 | 126 ft | 4 kts | 84° |
| 2026-04-25 05:50 | 33.94261 | -118.41125 | 129 ft | 1 kts | 84° |
| 2026-04-25 05:50 | 33.94261 | -118.41124 | 129 ft | 0 kts | 84° |